Wetterdaten: Mittwoch, 14.12.2022
Datum Zeit Temp. Aussen Temp. o. S. Temp +5cm Feuchte Auss Luftdruck Regen Sonnenschein Regendauer Solar Windben Empfang
14.12.2022 00:00 -2,0 C -2,8 C -5,6 C 79 % 1006,1 hPa 0,0 l/m 0 min 0 min 0 W/m 6,4 km/h (2 Bft) 97,87 %
14.12.2022 00:02 -2,0 C -2,8 C -5,6 C 79 % 1006,1 hPa 0,0 l/m 0 min 0 min 0 W/m 6,4 km/h (2 Bft) 95,00 %
14.12.2022 00:04 -2,1 C -2,8 C -5,6 C 79 % 1006,1 hPa 0,0 l/m 0 min 0 min 0 W/m 6,4 km/h (2 Bft) 97,87 %
14.12.2022 00:08 -2,1 C -2,8 C -5,6 C 79 % 1006,1 hPa 0,0 l/m 0 min 0 min 0 W/m 6,4 km/h (2 Bft) 97,89 %
14.12.2022 00:10 -2,1 C -2,8 C -5,6 C 79 % 1006,1 hPa 0,0 l/m 0 min 0 min 0 W/m 6,4 km/h (2 Bft) 95,74 %
14.12.2022 00:12 -2,0 C -2,8 C -5,6 C 79 % 1006,1 hPa 0,0 l/m 0 min 0 min 0 W/m 6,4 km/h (2 Bft) 95,74 %
14.12.2022 00:14 -2,0 C -2,8 C -5,6 C 79 % 1006,1 hPa 0,0 l/m 0 min 0 min 0 W/m 6,4 km/h (2 Bft) 93,62 %
14.12.2022 00:16 -2,0 C -2,8 C -5,6 C 79 % 1006,1 hPa 0,0 l/m 0 min 0 min 0 W/m 6,4 km/h (2 Bft) 97,87 %
14.12.2022 00:18 -2,0 C -2,8 C -5,6 C 79 % 1006,1 hPa 0,0 l/m 0 min 0 min 0 W/m 3,2 km/h (1 Bft) 95,74 %
14.12.2022 00:20 -2,0 C -2,8 C -5,6 C 79 % 1006,0 hPa 0,0 l/m 0 min 0 min 0 W/m 6,4 km/h (2 Bft) 97,83 %
14.12.2022 00:22 -2,0 C -2,8 C -5,6 C 78 % 1006,0 hPa 0,0 l/m 0 min 0 min 0 W/m 6,4 km/h (2 Bft) 95,74 %
14.12.2022 00:24 -2,0 C -2,8 C -5,6 C 78 % 1006,0 hPa 0,0 l/m 0 min 0 min 0 W/m 6,4 km/h (2 Bft) 97,87 %
14.12.2022 00:26 -1,9 C -2,8 C -5,6 C 78 % 1006,0 hPa 0,0 l/m 0 min 0 min 0 W/m 6,4 km/h (2 Bft) 97,87 %
14.12.2022 00:28 -1,9 C -2,8 C -5,6 C 78 % 1006,0 hPa 0,0 l/m 0 min 0 min 0 W/m 6,4 km/h (2 Bft) 97,87 %
14.12.2022 00:30 -1,9 C -2,8 C -5,6 C 78 % 1006,1 hPa 0,0 l/m 0 min 0 min 0 W/m 3,2 km/h (1 Bft) 95,65 %
14.12.2022 00:32 -1,9 C -2,8 C -5,6 C 78 % 1006,0 hPa 0,0 l/m 0 min 0 min 0 W/m 6,4 km/h (2 Bft) 97,87 %
14.12.2022 00:34 -1,9 C -2,8 C -5,6 C 78 % 1006,0 hPa 0,0 l/m 0 min 0 min 0 W/m 6,4 km/h (2 Bft) 95,74 %
14.12.2022 00:36 -1,9 C -2,8 C -5,6 C 78 % 1006,0 hPa 0,0 l/m 0 min 0 min 0 W/m 6,4 km/h (2 Bft) 97,87 %
14.12.2022 00:38 -1,9 C -2,8 C -5,6 C 78 % 1006,0 hPa 0,0 l/m 0 min 0 min 0 W/m 6,4 km/h (2 Bft) 100,00 %
14.12.2022 00:40 -1,9 C -2,8 C -5,6 C 78 % 1006,0 hPa 0,0 l/m 0 min 0 min 0 W/m 6,4 km/h (2 Bft) 95,74 %
14.12.2022 00:42 -1,9 C -2,8 C -5,6 C 78 % 1005,9 hPa 0,0 l/m 0 min 0 min 0 W/m 6,4 km/h (2 Bft) 93,48 %
14.12.2022 00:44 -2,0 C -2,8 C -5,6 C 78 % 1005,9 hPa 0,0 l/m 0 min 0 min 0 W/m 3,2 km/h (1 Bft) 93,62 %
14.12.2022 00:46 -2,0 C -2,8 C -5,6 C 78 % 1005,9 hPa 0,0 l/m 0 min 0 min 0 W/m 6,4 km/h (2 Bft) 95,74 %
14.12.2022 00:48 -2,0 C -2,8 C -5,6 C 78 % 1006,0 hPa 0,0 l/m 0 min 0 min 0 W/m 6,4 km/h (2 Bft) 95,74 %
14.12.2022 00:50 -2,0 C -2,8 C -5,6 C 78 % 1005,9 hPa 0,0 l/m 0 min 0 min 0 W/m 6,4 km/h (2 Bft) 95,74 %
14.12.2022 00:52 -2,0 C -2,8 C -5,6 C 79 % 1005,9 hPa 0,0 l/m 0 min 0 min 0 W/m 3,2 km/h (1 Bft) 95,74 %
14.12.2022 00:54 -2,1 C -2,8 C -5,6 C 79 % 1005,8 hPa 0,0 l/m 0 min 0 min 0 W/m 6,4 km/h (2 Bft) 93,48 %
14.12.2022 00:56 -2,1 C -2,8 C -5,6 C 79 % 1005,9 hPa 0,0 l/m 0 min 0 min 0 W/m 6,4 km/h (2 Bft) 95,74 %
14.12.2022 00:58 -2,1 C -2,8 C -5,6 C 79 % 1005,8 hPa 0,0 l/m 0 min 0 min 0 W/m 9,7 km/h (2 Bft) 95,74 %
14.12.2022 01:00 -2,1 C -2,8 C -5,6 C 79 % 1005,8 hPa 0,0 l/m 0 min 0 min 0 W/m 6,4 km/h (2 Bft) 95,74 %
14.12.2022 01:02 -2,1 C -2,8 C -5,6 C 78 % 1005,8 hPa 0,0 l/m 0 min 0 min 0 W/m 6,4 km/h (2 Bft) 97,87 %
14.12.2022 01:04 -2,1 C -2,8 C -5,6 C 79 % 1005,7 hPa 0,0 l/m 0 min 0 min 0 W/m 3,2 km/h (1 Bft) 95,74 %
14.12.2022 01:06 -2,1 C -2,8 C -5,6 C 79 % 1005,7 hPa 0,0 l/m 0 min 0 min 0 W/m 3,2 km/h (1 Bft) 93,48 %
14.12.2022 01:08 -2,1 C -2,8 C -5,6 C 79 % 1005,5 hPa 0,0 l/m 0 min 0 min 0 W/m 6,4 km/h (2 Bft) 95,74 %
14.12.2022 01:10 -2,1 C -2,8 C -5,6 C 79 % 1005,5 hPa 0,0 l/m 0 min 0 min 0 W/m 6,4 km/h (2 Bft) 95,74 %
14.12.2022 01:12 -2,0 C -2,8 C -5,6 C 78 % 1005,5 hPa 0,0 l/m 0 min 0 min 0 W/m 9,7 km/h (2 Bft) 95,74 %
14.12.2022 01:14 -2,0 C -2,2 C -5,6 C 78 % 1005,4 hPa 0,0 l/m 0 min 0 min 0 W/m 6,4 km/h (2 Bft) 95,74 %
14.12.2022 01:16 -2,0 C -2,2 C -5,6 C 78 % 1005,4 hPa 0,0 l/m 0 min 0 min 0 W/m 6,4 km/h (2 Bft) 95,74 %
14.12.2022 01:18 -2,0 C -2,2 C -5,6 C 78 % 1005,4 hPa 0,0 l/m 0 min 0 min 0 W/m 6,4 km/h (2 Bft) 97,83 %
14.12.2022 01:20 -2,0 C -2,2 C -5,6 C 78 % 1005,4 hPa 0,0 l/m 0 min 0 min 0 W/m 6,4 km/h (2 Bft) 97,87 %
14.12.2022 01:22 -1,9 C -2,2 C -5,6 C 78 % 1005,4 hPa 0,0 l/m 0 min 0 min 0 W/m 6,4 km/h (2 Bft) 95,74 %
14.12.2022 01:24 -1,9 C -2,2 C -5,6 C 78 % 1005,4 hPa 0,0 l/m 0 min 0 min 0 W/m 6,4 km/h (2 Bft) 97,87 %
14.12.2022 01:26 -1,9 C -2,2 C -5,6 C 77 % 1005,4 hPa 0,0 l/m 0 min 0 min 0 W/m 6,4 km/h (2 Bft) 97,87 %
14.12.2022 01:28 -1,9 C -2,2 C -5,6 C 77 % 1005,4 hPa 0,0 l/m 0 min 0 min 0 W/m 6,4 km/h (2 Bft) 95,65 %
14.12.2022 01:30 -1,9 C -2,2 C -5,6 C 78 % 1005,4 hPa 0,0 l/m 0 min 0 min 0 W/m 6,4 km/h (2 Bft) 97,87 %
14.12.2022 01:32 -1,9 C -2,2 C -5,6 C 77 % 1005,4 hPa 0,0 l/m 0 min 0 min 0 W/m 6,4 km/h (2 Bft) 97,87 %
14.12.2022 01:34 -1,8 C -2,2 C -5,0 C 77 % 1005,3 hPa 0,0 l/m 0 min 0 min 0 W/m 12,9 km/h (3 Bft) 95,74 %
14.12.2022 01:36 -1,8 C -2,2 C -5,0 C 77 % 1005,3 hPa 0,0 l/m 0 min 0 min 0 W/m 6,4 km/h (2 Bft) 91,49 %
14.12.2022 01:38 -1,8 C -2,2 C -5,0 C 77 % 1005,2 hPa 0,0 l/m 0 min 0 min 0 W/m 6,4 km/h (2 Bft) 62,22 %
14.12.2022 01:40 -1,8 C -2,2 C -5,0 C 77 % 1005,2 hPa 0,0 l/m 0 min 0 min 0 W/m 12,9 km/h (3 Bft) 97,83 %
14.12.2022 01:42 -1,8 C -2,2 C -5,0 C 77 % 1005,2 hPa 0,0 l/m 0 min 0 min 0 W/m 12,9 km/h (3 Bft) 100,00 %
14.12.2022 01:44 -1,7 C -2,2 C -5,0 C 77 % 1005,2 hPa 0,0 l/m 0 min 0 min 0 W/m 12,9 km/h (3 Bft) 100,00 %
14.12.2022 01:46 -1,7 C -2,2 C -5,0 C 76 % 1005,2 hPa 0,0 l/m 0 min 0 min 0 W/m 9,7 km/h (2 Bft) 100,00 %
14.12.2022 01:48 -1,7 C -2,2 C -5,0 C 76 % 1005,2 hPa 0,0 l/m 0 min 0 min 0 W/m 9,7 km/h (2 Bft) 97,87 %
14.12.2022 01:50 -1,7 C -2,2 C -5,0 C 76 % 1005,2 hPa 0,0 l/m 0 min 0 min 0 W/m 9,7 km/h (2 Bft) 100,00 %
14.12.2022 01:52 -1,7 C -2,2 C -5,0 C 76 % 1005,1 hPa 0,0 l/m 0 min 0 min 0 W/m 12,9 km/h (3 Bft) 97,87 %
14.12.2022 01:54 -1,7 C -2,2 C -5,0 C 76 % 1005,1 hPa 0,0 l/m 0 min 0 min 0 W/m 12,9 km/h (3 Bft) 100,00 %
14.12.2022 01:56 -1,7 C -2,2 C -5,0 C 76 % 1005,1 hPa 0,0 l/m 0 min 0 min 0 W/m 9,7 km/h (2 Bft) 100,00 %
14.12.2022 01:58 -1,6 C -2,2 C -5,0 C 76 % 1005,1 hPa 0,0 l/m 0 min 0 min 0 W/m 6,4 km/h (2 Bft) 100,00 %
14.12.2022 02:00 -1,6 C -2,2 C -5,0 C 76 % 1005,0 hPa 0,0 l/m 0 min 0 min 0 W/m 12,9 km/h (3 Bft) 97,87 %
14.12.2022 02:02 -1,6 C -2,2 C -5,0 C 75 % 1005,0 hPa 0,0 l/m 0 min 0 min 0 W/m 16,1 km/h (3 Bft) 100,00 %
14.12.2022 02:04 -1,6 C -2,2 C -5,0 C 75 % 1005,0 hPa 0,0 l/m 0 min 0 min 0 W/m 12,9 km/h (3 Bft) 93,48 %
14.12.2022 02:06 -1,6 C -2,2 C -5,0 C 75 % 1005,0 hPa 0,0 l/m 0 min 0 min 0 W/m 6,4 km/h (2 Bft) 100,00 %
14.12.2022 02:08 -1,6 C -2,2 C -5,0 C 75 % 1004,9 hPa 0,0 l/m 0 min 0 min 0 W/m 9,7 km/h (2 Bft) 100,00 %
14.12.2022 02:10 -1,6 C -2,2 C -5,0 C 76 % 1005,0 hPa 0,0 l/m 0 min 0 min 0 W/m 9,7 km/h (2 Bft) 97,87 %
14.12.2022 02:12 -1,6 C -2,2 C -5,0 C 76 % 1004,9 hPa 0,0 l/m 0 min 0 min 0 W/m 9,7 km/h (2 Bft) 97,87 %
14.12.2022 02:14 -1,6 C -2,2 C -5,0 C 76 % 1004,9 hPa 0,0 l/m 0 min 0 min 0 W/m 6,4 km/h (2 Bft) 95,74 %
14.12.2022 02:16 -1,6 C -2,2 C -5,0 C 76 % 1004,9 hPa 0,0 l/m 0 min 0 min 0 W/m 6,4 km/h (2 Bft) 97,83 %
14.12.2022 02:18 -1,6 C -2,2 C -5,0 C 76 % 1004,8 hPa 0,0 l/m 0 min 0 min 0 W/m 6,4 km/h (2 Bft) 100,00 %
14.12.2022 02:20 -1,6 C -2,2 C -5,0 C 76 % 1004,8 hPa 0,0 l/m 0 min 0 min 0 W/m 6,4 km/h (2 Bft) 95,74 %
14.12.2022 02:22 -1,6 C -2,2 C -5,0 C 76 % 1004,8 hPa 0,0 l/m 0 min 0 min 0 W/m 6,4 km/h (2 Bft) 95,74 %
14.12.2022 02:24 -1,6 C -2,2 C -5,6 C 76 % 1004,7 hPa 0,0 l/m 0 min 0 min 0 W/m 12,9 km/h (3 Bft) 95,74 %
14.12.2022 02:26 -1,6 C -2,2 C -5,6 C 76 % 1004,7 hPa 0,0 l/m 0 min 0 min 0 W/m 6,4 km/h (2 Bft) 91,49 %
14.12.2022 02:28 -1,6 C -2,2 C -5,6 C 77 % 1004,7 hPa 0,0 l/m 0 min 0 min 0 W/m 3,2 km/h (1 Bft) 93,48 %
14.12.2022 02:30 -1,6 C -2,2 C -5,6 C 77 % 1004,7 hPa 0,0 l/m 0 min 0 min 0 W/m 6,4 km/h (2 Bft) 97,87 %
14.12.2022 02:32 -1,6 C -2,2 C -5,6 C 77 % 1004,7 hPa 0,0 l/m 0 min 0 min 0 W/m 6,4 km/h (2 Bft) 95,74 %
14.12.2022 02:34 -1,7 C -2,2 C -5,6 C 77 % 1004,6 hPa 0,0 l/m 0 min 0 min 0 W/m 12,9 km/h (3 Bft) 93,62 %
14.12.2022 02:36 -1,7 C -2,2 C -5,6 C 76 % 1004,6 hPa 0,0 l/m 0 min 0 min 0 W/m 12,9 km/h (3 Bft) 95,74 %
14.12.2022 02:38 -1,7 C -2,2 C -5,6 C 76 % 1004,6 hPa 0,0 l/m 0 min 0 min 0 W/m 12,9 km/h (3 Bft) 95,74 %
14.12.2022 02:40 -1,7 C -2,2 C -5,6 C 76 % 1004,6 hPa 0,0 l/m 0 min 0 min 0 W/m 6,4 km/h (2 Bft) 93,33 %
14.12.2022 02:42 -1,7 C -2,2 C -5,6 C 76 % 1004,5 hPa 0,0 l/m 0 min 0 min 0 W/m 12,9 km/h (3 Bft) 95,74 %
14.12.2022 02:44 -1,7 C -2,2 C -5,6 C 76 % 1004,5 hPa 0,0 l/m 0 min 0 min 0 W/m 12,9 km/h (3 Bft) 95,74 %
14.12.2022 02:46 -1,7 C -2,2 C -5,6 C 76 % 1004,4 hPa 0,0 l/m 0 min 0 min 0 W/m 6,4 km/h (2 Bft) 93,62 %
14.12.2022 02:48 -1,8 C -2,2 C -5,6 C 76 % 1004,4 hPa 0,0 l/m 0 min 0 min 0 W/m 12,9 km/h (3 Bft) 95,74 %
14.12.2022 02:50 -1,8 C -2,2 C -5,6 C 76 % 1004,4 hPa 0,0 l/m 0 min 0 min 0 W/m 12,9 km/h (3 Bft) 93,62 %
14.12.2022 02:52 -1,8 C -2,8 C -5,6 C 76 % 1004,3 hPa 0,0 l/m 0 min 0 min 0 W/m 6,4 km/h (2 Bft) 93,48 %
14.12.2022 02:54 -1,8 C -2,8 C -5,6 C 76 % 1004,3 hPa 0,0 l/m 0 min 0 min 0 W/m 6,4 km/h (2 Bft) 93,62 %
14.12.2022 02:56 -1,8 C -2,8 C -5,6 C 76 % 1004,3 hPa 0,0 l/m 0 min 0 min 0 W/m 9,7 km/h (2 Bft) 93,62 %
14.12.2022 02:58 -1,8 C -2,8 C -5,6 C 76 % 1004,3 hPa 0,0 l/m 0 min 0 min 0 W/m 6,4 km/h (2 Bft) 95,74 %
14.12.2022 03:00 -1,9 C -2,8 C -5,6 C 76 % 1004,3 hPa 0,0 l/m 0 min 0 min 0 W/m 6,4 km/h (2 Bft) 100,00 %
14.12.2022 03:02 -1,9 C -2,8 C -5,6 C 76 % 1004,3 hPa 0,0 l/m 0 min 0 min 0 W/m 6,4 km/h (2 Bft) 100,00 %
14.12.2022 03:04 -1,9 C -2,8 C -5,6 C 76 % 1004,2 hPa 0,0 l/m 0 min 0 min 0 W/m 6,4 km/h (2 Bft) 100,00 %
14.12.2022 03:06 -1,9 C -2,8 C -5,6 C 76 % 1004,2 hPa 0,0 l/m 0 min 0 min 0 W/m 6,4 km/h (2 Bft) 97,87 %
14.12.2022 03:08 -1,9 C -2,8 C -5,6 C 76 % 1004,2 hPa 0,0 l/m 0 min 0 min 0 W/m 12,9 km/h (3 Bft) 97,87 %
14.12.2022 03:10 -1,9 C -2,8 C -5,6 C 76 % 1004,2 hPa 0,0 l/m 0 min 0 min 0 W/m 12,9 km/h (3 Bft) 100,00 %
14.12.2022 03:12 -1,9 C -2,8 C -5,6 C 76 % 1004,2 hPa 0,0 l/m 0 min 0 min 0 W/m 6,4 km/h (2 Bft) 98,31 %
14.12.2022 03:14 -1,9 C -2,8 C -5,6 C 76 % 1004,2 hPa 0,0 l/m 0 min 0 min 0 W/m 9,7 km/h (2 Bft) 100,00 %
14.12.2022 03:16 -1,9 C -2,8 C -5,6 C 76 % 1004,2 hPa 0,0 l/m 0 min 0 min 0 W/m 6,4 km/h (2 Bft) 100,00 %
14.12.2022 03:18 -1,9 C -2,8 C -5,6 C 76 % 1004,3 hPa 0,0 l/m 0 min 0 min 0 W/m 12,9 km/h (3 Bft) 98,11 %
14.12.2022 03:20 -2,0 C -2,8 C -5,6 C 76 % 1004,2 hPa 0,0 l/m 0 min 0 min 0 W/m 3,2 km/h (1 Bft) 100,00 %
14.12.2022 03:22 -1,9 C -2,8 C -5,6 C 76 % 1004,3 hPa 0,0 l/m 0 min 0 min 0 W/m 6,4 km/h (2 Bft) 100,00 %
14.12.2022 03:24 -2,0 C -2,8 C -5,6 C 76 % 1004,2 hPa 0,0 l/m 0 min 0 min 0 W/m 6,4 km/h (2 Bft) 100,00 %
14.12.2022 03:26 -2,0 C -2,8 C -5,6 C 77 % 1004,2 hPa 0,0 l/m 0 min 0 min 0 W/m 6,4 km/h (2 Bft) 100,00 %
14.12.2022 03:28 -2,0 C -2,8 C -5,6 C 77 % 1004,2 hPa 0,0 l/m 0 min 0 min 0 W/m 3,2 km/h (1 Bft) 100,00 %
14.12.2022 03:30 -2,0 C -2,8 C -6,1 C 77 % 1004,2 hPa 0,0 l/m 0 min 0 min 0 W/m 3,2 km/h (1 Bft) 100,00 %
14.12.2022 03:32 -2,0 C -2,8 C -5,6 C 77 % 1004,1 hPa 0,0 l/m 0 min 0 min 0 W/m 6,4 km/h (2 Bft) 100,00 %
14.12.2022 03:34 -2,1 C -2,8 C -5,6 C 77 % 1004,1 hPa 0,0 l/m 0 min 0 min 0 W/m 6,4 km/h (2 Bft) 100,00 %
14.12.2022 03:36 -2,1 C -2,8 C -5,6 C 77 % 1004,1 hPa 0,0 l/m 0 min 0 min 0 W/m 3,2 km/h (1 Bft) 100,00 %
14.12.2022 03:38 -2,1 C -2,8 C -5,6 C 77 % 1004,1 hPa 0,0 l/m 0 min 0 min 0 W/m 3,2 km/h (1 Bft) 97,14 %
14.12.2022 03:40 -2,1 C -2,8 C -6,1 C 77 % 1004,1 hPa 0,0 l/m 0 min 0 min 0 W/m 0,0 km/h (0 Bft) 100,00 %
14.12.2022 03:42 -2,1 C -2,8 C -6,1 C 77 % 1004,1 hPa 0,0 l/m 0 min 0 min 0 W/m 3,2 km/h (1 Bft) 100,00 %
14.12.2022 03:44 -2,1 C -3,3 C -6,1 C 77 % 1004,1 hPa 0,0 l/m 0 min 0 min 0 W/m 0,0 km/h (0 Bft) 100,00 %
14.12.2022 03:46 -2,1 C -3,3 C -6,1 C 77 % 1004,1 hPa 0,0 l/m 0 min 0 min 0 W/m 3,2 km/h (1 Bft) 100,00 %
14.12.2022 03:48 -2,1 C -3,3 C -6,1 C 77 % 1004,1 hPa 0,0 l/m 0 min 0 min 0 W/m 0,0 km/h (0 Bft) 98,11 %
14.12.2022 03:50 -2,2 C -3,3 C -6,1 C 77 % 1004,1 hPa 0,0 l/m 0 min 0 min 0 W/m 0,0 km/h (0 Bft) 100,00 %
14.12.2022 03:52 -2,2 C -3,3 C -6,1 C 77 % 1003,9 hPa 0,0 l/m 0 min 0 min 0 W/m 0,0 km/h (0 Bft) 96,55 %
14.12.2022 03:54 -2,2 C -3,3 C -6,1 C 78 % 1003,9 hPa 0,0 l/m 0 min 0 min 0 W/m 0,0 km/h (0 Bft) 97,14 %
14.12.2022 03:56 -2,2 C -3,3 C -6,7 C 78 % 1003,8 hPa 0,0 l/m 0 min 0 min 0 W/m 0,0 km/h (0 Bft) 97,87 %
14.12.2022 03:58 -2,3 C -3,9 C -6,7 C 78 % 1003,8 hPa 0,0 l/m 0 min 0 min 0 W/m 0,0 km/h (0 Bft) 97,87 %
14.12.2022 04:00 -2,3 C -3,9 C -6,7 C 78 % 1003,7 hPa 0,0 l/m 0 min 0 min 0 W/m 0,0 km/h (0 Bft) 97,87 %
14.12.2022 04:05 -2,4 C -3,9 C -6,7 C 78 % 1003,7 hPa 0,0 l/m 0 min 0 min 0 W/m 0,0 km/h (0 Bft) 96,72 %
14.12.2022 04:06 -2,4 C -3,9 C -6,7 C 78 % 1003,6 hPa 0,0 l/m 0 min 0 min 0 W/m 0,0 km/h (0 Bft) 95,65 %
14.12.2022 04:08 -2,4 C -3,9 C -6,7 C 78 % 1003,6 hPa 0,0 l/m 0 min 0 min 0 W/m 0,0 km/h (0 Bft) 97,87 %
14.12.2022 04:10 -2,5 C -3,9 C -6,7 C 78 % 1003,5 hPa 0,0 l/m 0 min 0 min 0 W/m 3,2 km/h (1 Bft) 95,74 %
14.12.2022 04:12 -2,5 C -3,9 C -6,7 C 79 % 1003,5 hPa 0,0 l/m 0 min 0 min 0 W/m 3,2 km/h (1 Bft) 97,87 %
14.12.2022 04:14 -2,6 C -3,9 C -6,7 C 79 % 1003,5 hPa 0,0 l/m 0 min 0 min 0 W/m 3,2 km/h (1 Bft) 100,00 %
14.12.2022 04:16 -2,6 C -3,9 C -6,7 C 79 % 1003,6 hPa 0,0 l/m 0 min 0 min 0 W/m 3,2 km/h (1 Bft) 97,87 %
14.12.2022 04:18 -2,7 C -3,9 C -6,7 C 79 % 1003,5 hPa 0,0 l/m 0 min 0 min 0 W/m 3,2 km/h (1 Bft) 94,29 %
14.12.2022 04:20 -2,7 C -3,9 C -6,7 C 80 % 1003,6 hPa 0,0 l/m 0 min 0 min 0 W/m 3,2 km/h (1 Bft) 95,74 %
14.12.2022 04:22 -2,7 C -3,9 C -6,7 C 80 % 1003,6 hPa 0,0 l/m 0 min 0 min 0 W/m 3,2 km/h (1 Bft) 93,22 %
14.12.2022 04:24 -2,7 C -3,9 C -6,7 C 80 % 1003,6 hPa 0,0 l/m 0 min 0 min 0 W/m 3,2 km/h (1 Bft) 95,74 %
14.12.2022 04:26 -2,8 C -3,9 C -6,7 C 81 % 1003,6 hPa 0,0 l/m 0 min 0 min 0 W/m 3,2 km/h (1 Bft) 95,65 %
14.12.2022 04:28 -2,8 C -3,9 C -6,7 C 81 % 1003,7 hPa 0,0 l/m 0 min 0 min 0 W/m 3,2 km/h (1 Bft) 93,62 %
14.12.2022 04:30 -2,8 C -3,9 C -6,7 C 81 % 1003,7 hPa 0,0 l/m 0 min 0 min 0 W/m 3,2 km/h (1 Bft) 95,74 %
14.12.2022 04:32 -2,9 C -3,9 C -6,7 C 81 % 1003,7 hPa 0,0 l/m 0 min 0 min 0 W/m 0,0 km/h (0 Bft) 91,43 %
14.12.2022 04:34 -2,9 C -3,9 C -6,7 C 81 % 1003,7 hPa 0,0 l/m 0 min 0 min 0 W/m 3,2 km/h (1 Bft) 94,92 %
14.12.2022 04:36 -2,9 C -3,9 C -6,7 C 82 % 1003,6 hPa 0,0 l/m 0 min 0 min 0 W/m 0,0 km/h (0 Bft) 95,74 %
14.12.2022 04:38 -2,9 C -3,9 C -6,7 C 82 % 1003,6 hPa 0,0 l/m 0 min 0 min 0 W/m 3,2 km/h (1 Bft) 94,29 %
14.12.2022 04:40 -2,9 C -3,9 C -6,7 C 82 % 1003,6 hPa 0,0 l/m 0 min 0 min 0 W/m 3,2 km/h (1 Bft) 93,10 %
14.12.2022 04:42 -3,0 C -3,9 C -6,7 C 82 % 1003,6 hPa 0,0 l/m 0 min 0 min 0 W/m 0,0 km/h (0 Bft) 93,62 %
14.12.2022 04:44 -3,0 C -3,9 C -6,7 C 83 % 1003,7 hPa 0,0 l/m 0 min 0 min 0 W/m 0,0 km/h (0 Bft) 94,29 %
14.12.2022 04:46 -3,0 C -3,9 C -6,7 C 83 % 1003,7 hPa 0,0 l/m 0 min 0 min 0 W/m 0,0 km/h (0 Bft) 96,23 %
14.12.2022 04:48 -3,0 C -3,9 C -6,7 C 83 % 1003,7 hPa 0,0 l/m 0 min 0 min 0 W/m 0,0 km/h (0 Bft) 96,23 %
14.12.2022 04:50 -3,1 C -3,9 C -6,7 C 83 % 1003,8 hPa 0,0 l/m 0 min 0 min 0 W/m 0,0 km/h (0 Bft) 97,87 %
14.12.2022 04:52 -3,1 C -3,9 C -6,7 C 83 % 1003,7 hPa 0,0 l/m 0 min 0 min 0 W/m 0,0 km/h (0 Bft) 97,06 %
14.12.2022 04:54 -3,1 C -3,9 C -6,7 C 84 % 1003,6 hPa 0,0 l/m 0 min 0 min 0 W/m 0,0 km/h (0 Bft) 96,61 %
14.12.2022 04:56 -3,1 C -3,9 C -6,7 C 84 % 1003,6 hPa 0,0 l/m 0 min 0 min 0 W/m 0,0 km/h (0 Bft) 97,14 %
14.12.2022 04:58 -3,1 C -3,9 C -6,7 C 84 % 1003,5 hPa 0,0 l/m 0 min 0 min 0 W/m 0,0 km/h (0 Bft) 95,74 %
14.12.2022 05:00 -3,1 C -3,9 C -6,7 C 84 % 1003,6 hPa 0,0 l/m 0 min 0 min 0 W/m 0,0 km/h (0 Bft) 96,30 %
14.12.2022 05:02 -3,1 C -3,9 C -6,7 C 84 % 1003,5 hPa 0,0 l/m 0 min 0 min 0 W/m 0,0 km/h (0 Bft) 93,62 %
14.12.2022 05:04 -3,1 C -3,9 C -6,7 C 84 % 1003,5 hPa 0,0 l/m 0 min 0 min 0 W/m 0,0 km/h (0 Bft) 97,56 %
14.12.2022 05:06 -3,1 C -3,9 C -6,7 C 84 % 1003,5 hPa 0,0 l/m 0 min 0 min 0 W/m 0,0 km/h (0 Bft) 96,23 %
14.12.2022 05:08 -3,1 C -3,9 C -6,7 C 84 % 1003,6 hPa 0,0 l/m 0 min 0 min 0 W/m 0,0 km/h (0 Bft) 95,12 %
14.12.2022 05:10 -3,2 C -3,9 C -6,7 C 84 % 1003,5 hPa 0,0 l/m 0 min 0 min 0 W/m 0,0 km/h (0 Bft) 97,87 %
14.12.2022 05:12 -3,2 C -3,9 C -6,7 C 84 % 1003,5 hPa 0,0 l/m 0 min 0 min 0 W/m 0,0 km/h (0 Bft) 97,87 %
14.12.2022 05:14 -3,2 C -3,9 C -6,7 C 84 % 1003,5 hPa 0,0 l/m 0 min 0 min 0 W/m 0,0 km/h (0 Bft) 100,00 %
14.12.2022 05:16 -3,2 C -3,9 C -6,7 C 84 % 1003,5 hPa 0,0 l/m 0 min 0 min 0 W/m 3,2 km/h (1 Bft) 95,65 %
14.12.2022 05:18 -3,2 C -3,9 C -6,7 C 84 % 1003,5 hPa 0,0 l/m 0 min 0 min 0 W/m 3,2 km/h (1 Bft) 95,74 %
14.12.2022 05:20 -3,2 C -3,9 C -6,7 C 84 % 1003,4 hPa 0,0 l/m 0 min 0 min 0 W/m 0,0 km/h (0 Bft) 100,00 %
14.12.2022 05:22 -3,2 C -3,9 C -6,7 C 84 % 1003,4 hPa 0,0 l/m 0 min 0 min 0 W/m 0,0 km/h (0 Bft) 100,00 %
14.12.2022 05:24 -3,2 C -3,9 C -6,7 C 84 % 1003,4 hPa 0,0 l/m 0 min 0 min 0 W/m 0,0 km/h (0 Bft) 100,00 %
14.12.2022 05:26 -3,2 C -3,9 C -6,7 C 84 % 1003,3 hPa 0,0 l/m 0 min 0 min 0 W/m 0,0 km/h (0 Bft) 100,00 %
14.12.2022 05:28 -3,2 C -3,9 C -6,7 C 84 % 1003,3 hPa 0,0 l/m 0 min 0 min 0 W/m 0,0 km/h (0 Bft) 97,83 %
14.12.2022 05:30 -3,2 C -3,9 C -6,7 C 84 % 1003,3 hPa 0,0 l/m 0 min 0 min 0 W/m 3,2 km/h (1 Bft) 100,00 %
14.12.2022 05:32 -3,2 C -3,9 C -6,7 C 84 % 1003,3 hPa 0,0 l/m 0 min 0 min 0 W/m 0,0 km/h (0 Bft) 100,00 %
14.12.2022 05:34 -3,2 C -3,9 C -6,7 C 84 % 1003,2 hPa 0,0 l/m 0 min 0 min 0 W/m 0,0 km/h (0 Bft) 100,00 %
14.12.2022 05:36 -3,3 C -3,9 C -6,7 C 85 % 1003,2 hPa 0,0 l/m 0 min 0 min 0 W/m 0,0 km/h (0 Bft) 100,00 %
14.12.2022 05:38 -3,2 C -3,9 C -6,7 C 85 % 1003,2 hPa 0,0 l/m 0 min 0 min 0 W/m 0,0 km/h (0 Bft) 100,00 %
14.12.2022 05:40 -3,2 C -3,9 C -6,7 C 85 % 1003,2 hPa 0,0 l/m 0 min 0 min 0 W/m 3,2 km/h (1 Bft) 100,00 %
14.12.2022 05:42 -3,2 C -3,9 C -6,7 C 85 % 1003,2 hPa 0,0 l/m 0 min 0 min 0 W/m 0,0 km/h (0 Bft) 100,00 %
14.12.2022 05:44 -3,3 C -3,9 C -6,7 C 85 % 1003,2 hPa 0,0 l/m 0 min 0 min 0 W/m 0,0 km/h (0 Bft) 100,00 %
14.12.2022 05:46 -3,3 C -3,9 C -6,7 C 85 % 1003,2 hPa 0,0 l/m 0 min 0 min 0 W/m 0,0 km/h (0 Bft) 100,00 %
14.12.2022 05:48 -3,3 C -3,9 C -6,7 C 85 % 1003,1 hPa 0,0 l/m 0 min 0 min 0 W/m 0,0 km/h (0 Bft) 100,00 %
14.12.2022 05:50 -3,3 C -3,9 C -6,7 C 85 % 1003,0 hPa 0,0 l/m 0 min 0 min 0 W/m 0,0 km/h (0 Bft) 100,00 %
14.12.2022 05:52 -3,3 C -3,9 C -6,7 C 85 % 1003,0 hPa 0,0 l/m 0 min 0 min 0 W/m 3,2 km/h (1 Bft) 97,83 %
14.12.2022 05:54 -3,3 C -3,9 C -6,7 C 85 % 1003,0 hPa 0,0 l/m 0 min 0 min 0 W/m 0,0 km/h (0 Bft) 97,87 %
14.12.2022 05:56 -3,3 C -3,9 C -6,7 C 85 % 1003,0 hPa 0,0 l/m 0 min 0 min 0 W/m 3,2 km/h (1 Bft) 97,87 %
14.12.2022 05:58 -3,3 C -3,9 C -6,7 C 85 % 1002,9 hPa 0,0 l/m 0 min 0 min 0 W/m 3,2 km/h (1 Bft) 97,87 %
14.12.2022 06:00 -3,3 C -3,9 C -6,7 C 85 % 1002,9 hPa 0,0 l/m 0 min 0 min 0 W/m 3,2 km/h (1 Bft) 97,87 %
14.12.2022 06:02 -3,3 C -3,9 C -6,7 C 85 % 1002,9 hPa 0,0 l/m 0 min 0 min 0 W/m 3,2 km/h (1 Bft) 97,87 %
14.12.2022 06:04 -3,3 C -3,9 C -6,7 C 86 % 1002,9 hPa 0,0 l/m 0 min 0 min 0 W/m 3,2 km/h (1 Bft) 97,83 %
14.12.2022 06:08 -3,3 C -3,9 C -6,7 C 86 % 1002,9 hPa 0,0 l/m 0 min 0 min 0 W/m 0,0 km/h (0 Bft) 97,06 %
14.12.2022 06:10 -3,3 C -3,9 C -6,7 C 86 % 1002,9 hPa 0,0 l/m 0 min 0 min 0 W/m 0,0 km/h (0 Bft) 97,87 %
14.12.2022 06:12 -3,3 C -3,9 C -6,7 C 86 % 1002,9 hPa 0,0 l/m 0 min 0 min 0 W/m 0,0 km/h (0 Bft) 97,83 %
14.12.2022 06:14 -3,2 C -3,9 C -6,7 C 86 % 1002,9 hPa 0,0 l/m 0 min 0 min 0 W/m 0,0 km/h (0 Bft) 97,87 %
14.12.2022 06:16 -3,2 C -3,9 C -6,7 C 86 % 1002,8 hPa 0,0 l/m 0 min 0 min 0 W/m 0,0 km/h (0 Bft) 97,87 %
14.12.2022 06:18 -3,2 C -3,9 C -6,7 C 86 % 1002,8 hPa 0,0 l/m 0 min 0 min 0 W/m 0,0 km/h (0 Bft) 97,87 %
14.12.2022 06:20 -3,2 C -3,9 C -6,7 C 86 % 1002,8 hPa 0,0 l/m 0 min 0 min 0 W/m 0,0 km/h (0 Bft) 95,74 %
14.12.2022 06:22 -3,2 C -3,9 C -6,7 C 86 % 1002,6 hPa 0,0 l/m 0 min 0 min 0 W/m 0,0 km/h (0 Bft) 97,87 %
14.12.2022 06:24 -3,2 C -3,9 C -6,7 C 86 % 1002,6 hPa 0,0 l/m 0 min 0 min 0 W/m 0,0 km/h (0 Bft) 97,83 %
14.12.2022 06:26 -3,2 C -3,9 C -6,7 C 86 % 1002,6 hPa 0,0 l/m 0 min 0 min 0 W/m 3,2 km/h (1 Bft) 97,87 %
14.12.2022 06:28 -3,2 C -3,9 C -6,7 C 86 % 1002,6 hPa 0,0 l/m 0 min 0 min 0 W/m 3,2 km/h (1 Bft) 97,87 %
14.12.2022 06:30 -3,2 C -3,9 C -6,7 C 86 % 1002,6 hPa 0,0 l/m 0 min 0 min 0 W/m 3,2 km/h (1 Bft) 97,87 %
14.12.2022 06:32 -3,2 C -3,9 C -6,7 C 86 % 1002,5 hPa 0,0 l/m 0 min 0 min 0 W/m 3,2 km/h (1 Bft) 100,00 %
14.12.2022 06:34 -3,2 C -3,9 C -6,7 C 86 % 1002,5 hPa 0,0 l/m 0 min 0 min 0 W/m 3,2 km/h (1 Bft) 100,00 %
14.12.2022 06:36 -3,2 C -3,9 C -6,7 C 86 % 1002,5 hPa 0,0 l/m 0 min 0 min 0 W/m 6,4 km/h (2 Bft) 100,00 %
14.12.2022 06:38 -3,2 C -3,9 C -6,7 C 86 % 1002,4 hPa 0,0 l/m 0 min 0 min 0 W/m 0,0 km/h (0 Bft) 100,00 %
14.12.2022 06:40 -3,2 C -3,9 C -6,7 C 86 % 1002,5 hPa 0,0 l/m 0 min 0 min 0 W/m 3,2 km/h (1 Bft) 97,87 %
14.12.2022 06:42 -3,1 C -3,9 C -6,7 C 86 % 1002,5 hPa 0,0 l/m 0 min 0 min 0 W/m 3,2 km/h (1 Bft) 97,87 %
14.12.2022 06:44 -3,1 C -3,9 C -6,7 C 86 % 1002,4 hPa 0,0 l/m 0 min 0 min 0 W/m 3,2 km/h (1 Bft) 97,87 %
14.12.2022 06:46 -3,1 C -3,9 C -6,7 C 86 % 1002,4 hPa 0,0 l/m 0 min 0 min 0 W/m 3,2 km/h (1 Bft) 97,87 %
14.12.2022 06:48 -3,1 C -3,9 C -6,7 C 86 % 1002,4 hPa 0,0 l/m 0 min 0 min 0 W/m 3,2 km/h (1 Bft) 95,65 %
14.12.2022 06:50 -3,1 C -3,9 C -6,7 C 86 % 1002,4 hPa 0,0 l/m 0 min 0 min 0 W/m 3,2 km/h (1 Bft) 95,74 %
14.12.2022 06:52 -3,1 C -3,9 C -6,7 C 86 % 1002,4 hPa 0,0 l/m 0 min 0 min 0 W/m 0,0 km/h (0 Bft) 97,87 %
14.12.2022 06:54 -3,1 C -3,9 C -6,7 C 86 % 1002,3 hPa 0,0 l/m 0 min 0 min 0 W/m 3,2 km/h (1 Bft) 95,74 %
14.12.2022 06:56 -3,1 C -3,9 C -6,7 C 86 % 1002,3 hPa 0,0 l/m 0 min 0 min 0 W/m 0,0 km/h (0 Bft) 95,74 %
14.12.2022 06:58 -3,1 C -3,9 C -6,7 C 86 % 1002,3 hPa 0,0 l/m 0 min 0 min 0 W/m 0,0 km/h (0 Bft) 53,19 %
14.12.2022 07:00 -3,1 C -3,9 C -6,1 C 86 % 1002,3 hPa 0,0 l/m 0 min 0 min 0 W/m 0,0 km/h (0 Bft) 95,65 %
14.12.2022 07:02 -3,1 C -3,9 C -6,7 C 86 % 1002,3 hPa 0,0 l/m 0 min 0 min 0 W/m 3,2 km/h (1 Bft) 100,00 %
14.12.2022 07:04 -3,1 C -3,3 C -6,1 C 86 % 1002,3 hPa 0,0 l/m 0 min 0 min 0 W/m 3,2 km/h (1 Bft) 97,87 %
14.12.2022 07:06 -3,0 C -3,3 C -6,1 C 86 % 1002,3 hPa 0,0 l/m 0 min 0 min 0 W/m 6,4 km/h (2 Bft) 97,87 %
14.12.2022 07:08 -3,0 C -3,3 C -6,1 C 86 % 1002,3 hPa 0,0 l/m 0 min 0 min 0 W/m 6,4 km/h (2 Bft) 97,87 %
14.12.2022 07:10 -3,0 C -3,3 C -6,1 C 86 % 1002,3 hPa 0,0 l/m 0 min 0 min 0 W/m 3,2 km/h (1 Bft) 97,87 %
14.12.2022 07:12 -2,9 C -3,3 C -6,1 C 86 % 1002,3 hPa 0,0 l/m 0 min 0 min 0 W/m 3,2 km/h (1 Bft) 93,48 %
14.12.2022 07:14 -2,9 C -3,3 C -6,1 C 86 % 1002,2 hPa 0,0 l/m 0 min 0 min 0 W/m 3,2 km/h (1 Bft) 95,74 %
14.12.2022 07:16 -2,9 C -3,3 C -6,1 C 86 % 1002,2 hPa 0,0 l/m 0 min 0 min 0 W/m 3,2 km/h (1 Bft) 94,00 %
14.12.2022 07:18 -2,9 C -3,3 C -6,1 C 86 % 1002,2 hPa 0,0 l/m 0 min 0 min 0 W/m 3,2 km/h (1 Bft) 95,74 %
14.12.2022 07:20 -2,9 C -3,3 C -6,1 C 86 % 1002,2 hPa 0,0 l/m 0 min 0 min 0 W/m 3,2 km/h (1 Bft) 97,87 %
14.12.2022 07:22 -2,9 C -3,3 C -6,1 C 86 % 1002,3 hPa 0,0 l/m 0 min 0 min 0 W/m 3,2 km/h (1 Bft) 97,83 %
14.12.2022 07:24 -2,9 C -3,3 C -6,1 C 86 % 1002,2 hPa 0,0 l/m 0 min 0 min 0 W/m 0,0 km/h (0 Bft) 97,87 %
14.12.2022 07:26 -2,9 C -3,3 C -6,1 C 86 % 1002,2 hPa 0,0 l/m 0 min 0 min 0 W/m 6,4 km/h (2 Bft) 97,87 %
14.12.2022 07:28 -2,9 C -3,3 C -6,1 C 86 % 1002,2 hPa 0,0 l/m 0 min 0 min 0 W/m 3,2 km/h (1 Bft) 95,74 %
14.12.2022 07:30 -2,8 C -3,3 C -6,1 C 86 % 1002,2 hPa 0,0 l/m 0 min 0 min 0 W/m 6,4 km/h (2 Bft) 95,74 %
14.12.2022 07:32 -2,8 C -3,3 C -6,1 C 86 % 1002,2 hPa 0,0 l/m 0 min 0 min 0 W/m 6,4 km/h (2 Bft) 93,62 %
14.12.2022 07:34 -2,8 C -3,3 C -6,1 C 86 % 1002,2 hPa 0,0 l/m 0 min 0 min 0 W/m 3,2 km/h (1 Bft) 55,81 %
14.12.2022 07:36 -2,8 C -3,3 C -6,1 C 86 % 1002,2 hPa 0,0 l/m 0 min 0 min 0 W/m 3,2 km/h (1 Bft) 93,62 %
14.12.2022 07:38 -2,8 C -3,3 C -6,1 C 86 % 1002,3 hPa 0,0 l/m 0 min 0 min 0 W/m 0,0 km/h (0 Bft) 97,87 %
14.12.2022 07:40 -2,8 C -3,3 C -6,1 C 85 % 1002,3 hPa 0,0 l/m 0 min 0 min 0 W/m 3,2 km/h (1 Bft) 97,87 %
14.12.2022 07:42 -2,8 C -3,3 C -6,1 C 85 % 1002,3 hPa 0,0 l/m 0 min 0 min 0 W/m 3,2 km/h (1 Bft) 97,87 %
14.12.2022 07:44 -2,8 C -3,3 C -6,1 C 85 % 1002,4 hPa 0,0 l/m 0 min 0 min 0 W/m 3,2 km/h (1 Bft) 97,87 %
14.12.2022 07:46 -2,8 C -3,3 C -6,1 C 85 % 1002,1 hPa 0,0 l/m 0 min 0 min 0 W/m 3,2 km/h (1 Bft) 93,48 %
14.12.2022 07:48 -2,8 C -3,3 C -6,1 C 85 % 1002,1 hPa 0,0 l/m 0 min 0 min 0 W/m 3,2 km/h (1 Bft) 93,62 %
14.12.2022 07:50 -2,8 C -3,3 C -6,1 C 85 % 1002,1 hPa 0,0 l/m 0 min 0 min 0 W/m 0,0 km/h (0 Bft) 93,62 %
14.12.2022 07:52 -2,8 C -3,3 C -6,1 C 85 % 1002,1 hPa 0,0 l/m 0 min 0 min 0 W/m 0,0 km/h (0 Bft) 95,74 %
14.12.2022 07:54 -2,7 C -3,3 C -6,1 C 85 % 1002,1 hPa 0,0 l/m 0 min 0 min 0 W/m 6,4 km/h (2 Bft) 95,74 %
14.12.2022 07:56 -2,7 C -2,8 C -6,1 C 85 % 1002,1 hPa 0,0 l/m 0 min 0 min 0 W/m 3,2 km/h (1 Bft) 93,62 %
14.12.2022 07:58 -2,7 C -2,8 C -5,6 C 85 % 1002,2 hPa 0,0 l/m 0 min 0 min 0 W/m 6,4 km/h (2 Bft) 95,65 %
14.12.2022 08:00 -2,7 C -2,8 C -5,6 C 85 % 1002,2 hPa 0,0 l/m 0 min 0 min 0 W/m 3,2 km/h (1 Bft) 95,74 %
14.12.2022 08:02 -2,7 C -2,8 C -5,6 C 85 % 1002,2 hPa 0,0 l/m 0 min 0 min 0 W/m 3,2 km/h (1 Bft) 93,62 %
14.12.2022 08:04 -2,6 C -2,8 C -5,6 C 85 % 1002,2 hPa 0,0 l/m 0 min 0 min 0 W/m 3,2 km/h (1 Bft) 97,87 %
14.12.2022 08:06 -2,6 C -2,8 C -5,6 C 85 % 1002,1 hPa 0,0 l/m 0 min 0 min 0 W/m 3,2 km/h (1 Bft) 95,83 %
14.12.2022 08:08 -2,6 C -2,8 C -5,6 C 84 % 1002,1 hPa 0,0 l/m 0 min 0 min 0 W/m 3,2 km/h (1 Bft) 78,72 %
14.12.2022 08:10 -2,5 C -2,8 C -5,6 C 84 % 1002,1 hPa 0,0 l/m 0 min 0 min 0 W/m 3,2 km/h (1 Bft) 64,29 %
14.12.2022 08:12 -2,5 C -2,8 C -5,6 C 84 % 1002,1 hPa 0,0 l/m 0 min 0 min 0 W/m 3,2 km/h (1 Bft) 97,87 %
14.12.2022 08:14 -2,4 C -2,8 C -5,6 C 84 % 1002,1 hPa 0,0 l/m 0 min 0 min 0 W/m 6,4 km/h (2 Bft) 97,87 %
14.12.2022 08:16 -2,4 C -2,8 C -5,6 C 84 % 1002,1 hPa 0,0 l/m 0 min 0 min 0 W/m 6,4 km/h (2 Bft) 100,00 %
14.12.2022 08:18 -2,4 C -2,8 C -5,6 C 84 % 1002,1 hPa 0,0 l/m 0 min 0 min 0 W/m 3,2 km/h (1 Bft) 95,74 %
14.12.2022 08:20 -2,4 C -2,8 C -5,6 C 83 % 1002,0 hPa 0,0 l/m 0 min 0 min 0 W/m 3,2 km/h (1 Bft) 100,00 %
14.12.2022 08:22 -2,3 C -2,8 C -5,6 C 83 % 1002,0 hPa 0,0 l/m 0 min 0 min 0 W/m 6,4 km/h (2 Bft) 97,87 %
14.12.2022 08:24 -2,3 C -2,8 C -5,6 C 83 % 1002,0 hPa 0,0 l/m 0 min 0 min 0 W/m 6,4 km/h (2 Bft) 100,00 %
14.12.2022 08:26 -2,3 C -2,8 C -5,6 C 83 % 1002,1 hPa 0,0 l/m 0 min 0 min 0 W/m 3,2 km/h (1 Bft) 97,87 %
14.12.2022 08:28 -2,3 C -2,8 C -5,6 C 83 % 1002,0 hPa 0,0 l/m 0 min 0 min 0 W/m 16,1 km/h (3 Bft) 100,00 %
14.12.2022 08:30 -2,3 C -2,2 C -5,6 C 82 % 1002,1 hPa 0,0 l/m 0 min 0 min 0 W/m 6,4 km/h (2 Bft) 100,00 %
14.12.2022 08:32 -2,2 C -2,2 C -5,6 C 82 % 1002,1 hPa 0,0 l/m 0 min 0 min 0 W/m 6,4 km/h (2 Bft) 100,00 %
14.12.2022 08:34 -2,2 C -2,2 C -5,6 C 82 % 1002,1 hPa 0,0 l/m 0 min 0 min 0 W/m 6,4 km/h (2 Bft) 100,00 %
14.12.2022 08:36 -2,2 C -2,2 C -5,6 C 82 % 1002,0 hPa 0,0 l/m 0 min 0 min 0 W/m 9,7 km/h (2 Bft) 100,00 %
14.12.2022 08:38 -2,2 C -2,2 C -5,6 C 82 % 1002,1 hPa 0,0 l/m 0 min 0 min 0 W/m 12,9 km/h (3 Bft) 95,74 %
14.12.2022 08:40 -2,1 C -2,2 C -5,6 C 81 % 1002,1 hPa 0,0 l/m 0 min 0 min 0 W/m 6,4 km/h (2 Bft) 100,00 %
14.12.2022 08:42 -2,1 C -2,2 C -5,6 C 81 % 1002,2 hPa 0,0 l/m 0 min 0 min 0 W/m 6,4 km/h (2 Bft) 100,00 %
14.12.2022 08:44 -2,1 C -2,2 C -5,6 C 81 % 1002,2 hPa 0,0 l/m 0 min 0 min 2 W/m 3,2 km/h (1 Bft) 100,00 %
14.12.2022 08:46 -2,1 C -2,2 C -5,6 C 81 % 1002,3 hPa 0,0 l/m 0 min 0 min 5 W/m 3,2 km/h (1 Bft) 100,00 %
14.12.2022 08:48 -2,0 C -2,2 C -5,6 C 81 % 1002,3 hPa 0,0 l/m 0 min 0 min 6 W/m 3,2 km/h (1 Bft) 95,74 %
14.12.2022 08:50 -2,0 C -2,2 C -5,6 C 81 % 1002,3 hPa 0,0 l/m 0 min 0 min 7 W/m 6,4 km/h (2 Bft) 100,00 %
14.12.2022 08:52 -2,0 C -2,2 C -5,6 C 81 % 1002,3 hPa 0,0 l/m 0 min 0 min 7 W/m 6,4 km/h (2 Bft) 100,00 %
14.12.2022 08:54 -2,0 C -2,2 C -5,6 C 81 % 1002,3 hPa 0,0 l/m 0 min 0 min 8 W/m 3,2 km/h (1 Bft) 100,00 %
14.12.2022 08:56 -1,9 C -2,2 C -5,0 C 81 % 1002,3 hPa 0,0 l/m 0 min 0 min 10 W/m 6,4 km/h (2 Bft) 100,00 %
14.12.2022 08:58 -1,9 C -2,2 C -5,0 C 80 % 1002,3 hPa 0,0 l/m 0 min 0 min 12 W/m 6,4 km/h (2 Bft) 95,65 %
14.12.2022 09:00 -1,9 C -2,2 C -5,0 C 80 % 1002,3 hPa 0,0 l/m 0 min 0 min 12 W/m 3,2 km/h (1 Bft) 97,87 %
14.12.2022 09:02 -1,9 C -2,2 C -5,0 C 80 % 1002,3 hPa 0,0 l/m 0 min 0 min 12 W/m 6,4 km/h (2 Bft) 97,87 %
14.12.2022 09:04 -1,9 C -2,2 C -5,0 C 80 % 1002,3 hPa 0,0 l/m 0 min 0 min 12 W/m 6,4 km/h (2 Bft) 97,87 %
14.12.2022 09:06 -1,9 C -2,2 C -5,0 C 80 % 1002,3 hPa 0,0 l/m 0 min 0 min 12 W/m 3,2 km/h (1 Bft) 97,87 %
14.12.2022 09:08 -1,9 C -2,2 C -5,0 C 80 % 1002,3 hPa 0,0 l/m 0 min 0 min 12 W/m 6,4 km/h (2 Bft) 93,48 %
14.12.2022 09:10 -1,9 C -2,2 C -5,0 C 80 % 1002,3 hPa 0,0 l/m 0 min 0 min 12 W/m 3,2 km/h (1 Bft) 97,87 %
14.12.2022 09:12 -1,8 C -2,2 C -5,0 C 80 % 1002,4 hPa 0,0 l/m 0 min 0 min 13 W/m 0,0 km/h (0 Bft) 93,62 %
14.12.2022 09:14 -1,8 C -2,2 C -5,0 C 80 % 1002,4 hPa 0,0 l/m 0 min 0 min 14 W/m 3,2 km/h (1 Bft) 97,87 %
14.12.2022 09:16 -1,8 C -2,2 C -5,0 C 80 % 1002,3 hPa 0,0 l/m 0 min 0 min 16 W/m 3,2 km/h (1 Bft) 97,87 %
14.12.2022 09:18 -1,8 C -2,2 C -5,0 C 80 % 1002,4 hPa 0,0 l/m 0 min 0 min 16 W/m 3,2 km/h (1 Bft) 97,87 %
14.12.2022 09:20 -1,8 C -2,2 C -5,0 C 80 % 1002,4 hPa 0,0 l/m 0 min 0 min 16 W/m 3,2 km/h (1 Bft) 97,83 %
14.12.2022 09:22 -1,8 C -2,2 C -5,0 C 80 % 1002,4 hPa 0,0 l/m 0 min 0 min 16 W/m 3,2 km/h (1 Bft) 95,74 %
14.12.2022 09:24 -1,8 C -2,2 C -5,0 C 80 % 1002,4 hPa 0,0 l/m 0 min 0 min 17 W/m 3,2 km/h (1 Bft) 97,87 %
14.12.2022 09:30 -1,8 C -2,2 C -5,0 C 80 % 1002,4 hPa 0,0 l/m 0 min 0 min 22 W/m 3,2 km/h (1 Bft) 100,00 %
14.12.2022 09:32 -1,8 C -2,2 C -5,0 C 80 % 1002,4 hPa 0,0 l/m 0 min 0 min 24 W/m 3,2 km/h (1 Bft) 93,62 %
14.12.2022 09:34 -1,7 C -2,2 C -5,0 C 80 % 1002,5 hPa 0,0 l/m 0 min 0 min 30 W/m 0,0 km/h (0 Bft) 95,74 %
14.12.2022 09:36 -1,7 C -2,2 C -5,0 C 80 % 1002,5 hPa 0,0 l/m 0 min 0 min 35 W/m 3,2 km/h (1 Bft) 95,74 %
14.12.2022 09:38 -1,7 C -2,2 C -5,0 C 80 % 1002,5 hPa 0,0 l/m 0 min 0 min 39 W/m 3,2 km/h (1 Bft) 95,65 %
14.12.2022 09:40 -1,7 C -2,2 C -5,0 C 80 % 1002,5 hPa 0,0 l/m 0 min 0 min 40 W/m 0,0 km/h (0 Bft) 97,87 %
14.12.2022 09:42 -1,7 C -1,7 C -5,0 C 80 % 1002,5 hPa 0,0 l/m 0 min 0 min 39 W/m 0,0 km/h (0 Bft) 95,74 %
14.12.2022 09:44 -1,7 C -1,7 C -5,0 C 80 % 1002,5 hPa 0,0 l/m 0 min 0 min 37 W/m 0,0 km/h (0 Bft) 93,62 %
14.12.2022 09:46 -1,7 C -1,7 C -5,0 C 80 % 1002,5 hPa 0,0 l/m 0 min 0 min 37 W/m 3,2 km/h (1 Bft) 97,87 %
14.12.2022 09:48 -1,7 C -1,7 C -5,0 C 81 % 1002,5 hPa 0,0 l/m 0 min 0 min 37 W/m 0,0 km/h (0 Bft) 97,87 %
14.12.2022 09:50 -1,7 C -1,7 C -5,0 C 81 % 1002,5 hPa 0,0 l/m 0 min 0 min 37 W/m 0,0 km/h (0 Bft) 93,62 %
14.12.2022 09:52 -1,7 C -1,7 C -5,0 C 81 % 1002,4 hPa 0,0 l/m 0 min 0 min 37 W/m 0,0 km/h (0 Bft) 91,30 %
14.12.2022 09:54 -1,6 C -1,7 C -5,0 C 81 % 1002,5 hPa 0,0 l/m 0 min 0 min 39 W/m 0,0 km/h (0 Bft) 97,87 %
14.12.2022 09:56 -1,6 C -1,7 C -5,0 C 81 % 1002,5 hPa 0,0 l/m 0 min 0 min 40 W/m 3,2 km/h (1 Bft) 95,74 %
14.12.2022 09:58 -1,6 C -1,7 C -5,0 C 81 % 1002,5 hPa 0,0 l/m 0 min 0 min 40 W/m 3,2 km/h (1 Bft) 97,87 %
14.12.2022 10:00 -1,6 C -1,7 C -5,0 C 81 % 1002,5 hPa 0,0 l/m 0 min 0 min 39 W/m 3,2 km/h (1 Bft) 97,87 %
14.12.2022 10:02 -1,6 C -1,7 C -5,0 C 81 % 1002,5 hPa 0,0 l/m 0 min 0 min 37 W/m 0,0 km/h (0 Bft) 95,65 %
14.12.2022 10:04 -1,6 C -1,7 C -5,0 C 81 % 1002,4 hPa 0,0 l/m 0 min 0 min 35 W/m 0,0 km/h (0 Bft) 95,74 %
14.12.2022 10:06 -1,6 C -1,7 C -5,0 C 82 % 1002,5 hPa 0,0 l/m 0 min 0 min 36 W/m 0,0 km/h (0 Bft) 97,87 %
14.12.2022 10:08 -1,6 C -1,7 C -5,0 C 82 % 1002,5 hPa 0,0 l/m 0 min 0 min 40 W/m 3,2 km/h (1 Bft) 95,74 %
14.12.2022 10:10 -1,5 C -1,7 C -5,0 C 82 % 1002,5 hPa 0,0 l/m 0 min 0 min 40 W/m 3,2 km/h (1 Bft) 97,87 %
14.12.2022 10:12 -1,5 C -1,7 C -5,0 C 82 % 1002,4 hPa 0,0 l/m 0 min 0 min 40 W/m 3,2 km/h (1 Bft) 97,87 %
14.12.2022 10:14 -1,5 C -1,7 C -5,0 C 82 % 1002,4 hPa 0,0 l/m 0 min 0 min 40 W/m 3,2 km/h (1 Bft) 95,74 %
14.12.2022 10:16 -1,5 C -1,7 C -5,0 C 82 % 1002,5 hPa 0,0 l/m 0 min 0 min 39 W/m 3,2 km/h (1 Bft) 97,87 %
14.12.2022 10:18 -1,5 C -1,7 C -5,0 C 82 % 1002,5 hPa 0,0 l/m 0 min 0 min 39 W/m 3,2 km/h (1 Bft) 97,83 %
14.12.2022 10:20 -1,4 C -1,7 C -5,0 C 82 % 1002,5 hPa 0,0 l/m 0 min 0 min 43 W/m 3,2 km/h (1 Bft) 95,74 %
14.12.2022 10:22 -1,4 C -1,7 C -5,0 C 82 % 1002,5 hPa 0,0 l/m 0 min 0 min 50 W/m 0,0 km/h (0 Bft) 97,87 %
14.12.2022 10:24 -1,4 C -1,7 C -5,0 C 82 % 1002,6 hPa 0,0 l/m 0 min 0 min 55 W/m 0,0 km/h (0 Bft) 97,87 %
14.12.2022 10:26 -1,4 C -1,7 C -5,0 C 82 % 1002,6 hPa 0,0 l/m 0 min 0 min 59 W/m 0,0 km/h (0 Bft) 95,74 %
14.12.2022 10:28 -1,4 C -1,1 C -5,0 C 82 % 1002,6 hPa 0,0 l/m 0 min 0 min 61 W/m 0,0 km/h (0 Bft) 97,87 %
14.12.2022 10:30 -1,4 C -1,1 C -5,0 C 82 % 1002,6 hPa 0,0 l/m 0 min 0 min 60 W/m 3,2 km/h (1 Bft) 95,65 %
14.12.2022 10:32 -1,4 C -1,1 C -4,4 C 82 % 1002,6 hPa 0,0 l/m 0 min 0 min 58 W/m 3,2 km/h (1 Bft) 97,87 %
14.12.2022 10:34 -1,4 C -1,1 C -4,4 C 82 % 1002,6 hPa 0,0 l/m 0 min 0 min 60 W/m 3,2 km/h (1 Bft) 97,87 %
14.12.2022 10:36 -1,4 C -1,1 C -4,4 C 82 % 1002,7 hPa 0,0 l/m 0 min 0 min 64 W/m 3,2 km/h (1 Bft) 95,74 %
14.12.2022 10:38 -1,3 C -1,1 C -4,4 C 82 % 1002,6 hPa 0,0 l/m 0 min 0 min 72 W/m 3,2 km/h (1 Bft) 95,74 %
14.12.2022 10:40 -1,3 C -1,1 C -4,4 C 81 % 1002,6 hPa 0,0 l/m 0 min 0 min 82 W/m 0,0 km/h (0 Bft) 97,87 %
14.12.2022 10:42 -1,3 C -0,6 C -4,4 C 82 % 1002,7 hPa 0,0 l/m 0 min 0 min 92 W/m 3,2 km/h (1 Bft) 97,83 %
14.12.2022 10:44 -1,3 C -0,6 C -4,4 C 82 % 1002,7 hPa 0,0 l/m 0 min 0 min 96 W/m 6,4 km/h (2 Bft) 93,62 %
14.12.2022 10:46 -1,2 C -0,6 C -4,4 C 81 % 1002,6 hPa 0,0 l/m 0 min 0 min 93 W/m 3,2 km/h (1 Bft) 95,74 %
14.12.2022 10:48 -1,2 C -0,6 C -4,4 C 81 % 1002,6 hPa 0,0 l/m 0 min 0 min 86 W/m 3,2 km/h (1 Bft) 95,74 %
14.12.2022 10:50 -1,2 C -0,6 C -4,4 C 81 % 1002,6 hPa 0,0 l/m 0 min 0 min 80 W/m 6,4 km/h (2 Bft) 97,87 %
14.12.2022 10:52 -1,2 C -0,6 C -4,4 C 81 % 1002,6 hPa 0,0 l/m 0 min 0 min 76 W/m 3,2 km/h (1 Bft) 95,65 %
14.12.2022 10:54 -1,1 C -0,6 C -4,4 C 81 % 1002,5 hPa 0,0 l/m 0 min 0 min 72 W/m 3,2 km/h (1 Bft) 97,87 %
14.12.2022 10:56 -1,1 C -0,6 C -4,4 C 81 % 1002,6 hPa 0,0 l/m 0 min 0 min 70 W/m 3,2 km/h (1 Bft) 93,62 %
14.12.2022 10:58 -1,1 C -0,6 C -4,4 C 81 % 1002,6 hPa 0,0 l/m 0 min 0 min 70 W/m 3,2 km/h (1 Bft) 97,87 %
14.12.2022 11:00 -1,1 C -0,6 C -4,4 C 81 % 1002,6 hPa 0,0 l/m 0 min 0 min 70 W/m 0,0 km/h (0 Bft) 100,00 %
14.12.2022 11:02 -1,1 C -0,6 C -4,4 C 81 % 1002,7 hPa 0,0 l/m 0 min 0 min 73 W/m 3,2 km/h (1 Bft) 97,87 %
14.12.2022 11:04 -1,1 C -0,6 C -4,4 C 81 % 1002,7 hPa 0,0 l/m 0 min 0 min 78 W/m 3,2 km/h (1 Bft) 97,83 %
14.12.2022 11:06 -1,1 C -0,6 C -4,4 C 80 % 1002,7 hPa 0,0 l/m 0 min 0 min 82 W/m 3,2 km/h (1 Bft) 100,00 %
14.12.2022 11:08 -1,1 C -0,6 C -4,4 C 80 % 1002,7 hPa 0,0 l/m 0 min 0 min 84 W/m 3,2 km/h (1 Bft) 100,00 %
14.12.2022 11:10 -1,0 C -0,6 C -4,4 C 80 % 1002,6 hPa 0,0 l/m 0 min 0 min 83 W/m 3,2 km/h (1 Bft) 100,00 %
14.12.2022 11:12 -1,0 C -0,6 C -4,4 C 80 % 1002,6 hPa 0,0 l/m 0 min 0 min 76 W/m 12,9 km/h (3 Bft) 97,87 %
14.12.2022 11:14 -1,0 C -0,6 C -4,4 C 80 % 1002,6 hPa 0,0 l/m 0 min 0 min 77 W/m 6,4 km/h (2 Bft) 95,74 %
14.12.2022 11:16 -1,0 C -0,6 C -4,4 C 79 % 1002,6 hPa 0,0 l/m 0 min 0 min 87 W/m 6,4 km/h (2 Bft) 97,83 %
14.12.2022 11:18 -1,0 C -0,6 C -3,9 C 79 % 1002,6 hPa 0,0 l/m 0 min 0 min 102 W/m 3,2 km/h (1 Bft) 97,87 %
14.12.2022 11:20 -0,9 C -0,6 C -3,9 C 79 % 1002,6 hPa 0,0 l/m 0 min 0 min 112 W/m 6,4 km/h (2 Bft) 100,00 %
14.12.2022 11:22 -0,9 C 0,0 C -3,9 C 79 % 1002,6 hPa 0,0 l/m 0 min 0 min 116 W/m 6,4 km/h (2 Bft) 97,87 %
14.12.2022 11:24 -0,9 C 0,0 C -3,9 C 79 % 1002,6 hPa 0,0 l/m 0 min 0 min 113 W/m 6,4 km/h (2 Bft) 95,74 %
14.12.2022 11:26 -0,9 C 0,0 C -3,9 C 78 % 1002,6 hPa 0,0 l/m 0 min 0 min 108 W/m 6,4 km/h (2 Bft) 100,00 %
14.12.2022 11:28 -0,8 C 0,0 C -3,9 C 78 % 1002,6 hPa 0,0 l/m 0 min 0 min 98 W/m 0,0 km/h (0 Bft) 100,00 %
14.12.2022 11:30 -0,8 C 0,0 C -3,9 C 78 % 1002,6 hPa 0,0 l/m 0 min 0 min 90 W/m 0,0 km/h (0 Bft) 100,00 %
14.12.2022 11:32 -0,8 C 0,0 C -3,9 C 78 % 1002,6 hPa 0,0 l/m 0 min 0 min 85 W/m 0,0 km/h (0 Bft) 97,87 %
14.12.2022 11:34 -0,8 C -0,6 C -3,9 C 78 % 1002,6 hPa 0,0 l/m 0 min 0 min 78 W/m 0,0 km/h (0 Bft) 95,74 %
14.12.2022 11:36 -0,8 C -0,6 C -3,9 C 78 % 1002,6 hPa 0,0 l/m 0 min 0 min 87 W/m 0,0 km/h (0 Bft) 95,74 %
14.12.2022 11:38 -0,8 C -0,6 C -3,9 C 78 % 1002,6 hPa 0,0 l/m 0 min 0 min 99 W/m 0,0 km/h (0 Bft) 95,74 %
14.12.2022 11:40 -0,7 C -0,6 C -3,9 C 77 % 1002,6 hPa 0,0 l/m 0 min 0 min 97 W/m 6,4 km/h (2 Bft) 95,65 %
14.12.2022 11:42 -0,7 C -0,6 C -3,9 C 77 % 1002,6 hPa 0,0 l/m 0 min 0 min 88 W/m 12,9 km/h (3 Bft) 93,62 %
14.12.2022 11:44 -0,7 C -0,6 C -3,9 C 77 % 1002,6 hPa 0,0 l/m 0 min 0 min 90 W/m 3,2 km/h (1 Bft) 95,74 %
14.12.2022 11:46 -0,7 C -0,6 C -3,9 C 77 % 1002,6 hPa 0,0 l/m 0 min 0 min 94 W/m 6,4 km/h (2 Bft) 95,74 %
14.12.2022 11:48 -0,7 C -0,6 C -3,9 C 77 % 1002,6 hPa 0,0 l/m 0 min 0 min 91 W/m 3,2 km/h (1 Bft) 95,74 %
14.12.2022 11:50 -0,7 C -0,6 C -3,9 C 77 % 1002,6 hPa 0,0 l/m 0 min 0 min 95 W/m 3,2 km/h (1 Bft) 93,62 %
14.12.2022 11:52 -0,7 C -0,6 C -3,9 C 77 % 1002,5 hPa 0,0 l/m 0 min 0 min 104 W/m 6,4 km/h (2 Bft) 95,65 %
14.12.2022 11:54 -0,6 C 0,0 C -3,9 C 77 % 1002,5 hPa 0,0 l/m 0 min 0 min 110 W/m 3,2 km/h (1 Bft) 93,62 %
14.12.2022 11:56 -0,6 C 0,0 C -3,9 C 77 % 1002,5 hPa 0,0 l/m 0 min 0 min 113 W/m 6,4 km/h (2 Bft) 95,74 %
14.12.2022 11:58 -0,6 C 0,0 C -3,9 C 76 % 1002,5 hPa 0,0 l/m 0 min 0 min 116 W/m 3,2 km/h (1 Bft) 95,74 %
14.12.2022 12:00 -0,6 C 0,0 C -3,9 C 76 % 1002,5 hPa 0,0 l/m 0 min 0 min 118 W/m 9,7 km/h (2 Bft) 95,74 %
14.12.2022 12:02 -0,6 C 0,0 C -3,9 C 76 % 1002,4 hPa 0,0 l/m 0 min 0 min 119 W/m 6,4 km/h (2 Bft) 95,74 %
14.12.2022 12:04 -0,5 C 0,0 C -3,9 C 76 % 1002,5 hPa 0,0 l/m 0 min 0 min 120 W/m 6,4 km/h (2 Bft) 93,62 %
14.12.2022 12:08 -0,5 C 0,0 C -3,9 C 76 % 1002,4 hPa 0,0 l/m 0 min 0 min 120 W/m 12,9 km/h (3 Bft) 95,06 %
14.12.2022 12:10 -0,4 C 0,0 C -3,9 C 76 % 1002,3 hPa 0,0 l/m 0 min 0 min 118 W/m 9,7 km/h (2 Bft) 97,87 %
14.12.2022 12:12 -0,4 C 0,0 C -3,9 C 76 % 1002,3 hPa 0,0 l/m 0 min 0 min 118 W/m 3,2 km/h (1 Bft) 51,22 %
14.12.2022 12:16 -0,4 C 0,0 C -3,9 C 76 % 1002,3 hPa 0,0 l/m 0 min 0 min 117 W/m 6,4 km/h (2 Bft) 98,78 %
14.12.2022 12:18 -0,4 C 0,0 C -3,9 C 76 % 1002,3 hPa 0,0 l/m 0 min 0 min 116 W/m 6,4 km/h (2 Bft) 97,87 %
14.12.2022 12:20 -0,3 C 0,0 C -3,3 C 76 % 1002,4 hPa 0,0 l/m 0 min 0 min 116 W/m 12,9 km/h (3 Bft) 97,83 %
14.12.2022 12:22 -0,3 C 0,0 C -3,3 C 76 % 1002,4 hPa 0,0 l/m 0 min 0 min 114 W/m 6,4 km/h (2 Bft) 97,87 %
14.12.2022 12:24 -0,3 C 0,0 C -3,3 C 76 % 1002,3 hPa 0,0 l/m 0 min 0 min 114 W/m 6,4 km/h (2 Bft) 97,87 %
14.12.2022 12:26 -0,3 C 0,0 C -3,3 C 75 % 1002,4 hPa 0,0 l/m 0 min 0 min 116 W/m 3,2 km/h (1 Bft) 98,31 %
14.12.2022 12:28 -0,3 C 0,0 C -3,9 C 75 % 1002,4 hPa 0,0 l/m 0 min 0 min 116 W/m 6,4 km/h (2 Bft) 100,00 %
14.12.2022 12:30 -0,2 C 0,0 C -3,3 C 76 % 1002,4 hPa 0,0 l/m 0 min 0 min 115 W/m 6,4 km/h (2 Bft) 100,00 %
14.12.2022 12:32 -0,2 C 0,0 C -3,3 C 76 % 1002,4 hPa 0,0 l/m 0 min 0 min 113 W/m 6,4 km/h (2 Bft) 97,87 %
14.12.2022 12:34 -0,2 C 0,0 C -3,3 C 75 % 1002,4 hPa 0,0 l/m 0 min 0 min 113 W/m 6,4 km/h (2 Bft) 100,00 %
14.12.2022 12:36 -0,2 C 0,0 C -3,3 C 75 % 1002,4 hPa 0,0 l/m 0 min 0 min 112 W/m 12,9 km/h (3 Bft) 97,87 %
14.12.2022 12:38 -0,2 C 0,0 C -3,3 C 75 % 1002,4 hPa 0,0 l/m 0 min 0 min 111 W/m 9,7 km/h (2 Bft) 95,74 %
14.12.2022 12:40 -0,2 C 0,0 C -3,3 C 75 % 1002,4 hPa 0,0 l/m 0 min 0 min 111 W/m 6,4 km/h (2 Bft) 100,00 %
14.12.2022 12:42 -0,2 C 0,0 C -3,9 C 75 % 1002,4 hPa 0,0 l/m 0 min 0 min 111 W/m 16,1 km/h (3 Bft) 97,87 %
14.12.2022 12:44 -0,2 C 0,0 C -3,9 C 75 % 1002,5 hPa 0,0 l/m 0 min 0 min 111 W/m 6,4 km/h (2 Bft) 97,87 %
14.12.2022 12:46 -0,2 C 0,0 C -3,9 C 75 % 1002,4 hPa 0,0 l/m 0 min 0 min 111 W/m 6,4 km/h (2 Bft) 97,87 %
14.12.2022 12:48 -0,2 C 0,0 C -3,9 C 75 % 1002,5 hPa 0,0 l/m 0 min 0 min 111 W/m 6,4 km/h (2 Bft) 97,87 %
14.12.2022 12:50 -0,2 C 0,0 C -3,9 C 75 % 1002,4 hPa 0,0 l/m 0 min 0 min 109 W/m 6,4 km/h (2 Bft) 97,87 %
14.12.2022 12:52 -0,2 C 0,0 C -3,9 C 75 % 1002,4 hPa 0,0 l/m 0 min 0 min 106 W/m 12,9 km/h (3 Bft) 100,00 %
14.12.2022 12:54 -0,1 C 0,0 C -3,9 C 75 % 1002,4 hPa 0,0 l/m 0 min 0 min 105 W/m 6,4 km/h (2 Bft) 100,00 %
14.12.2022 12:56 -0,1 C 0,0 C -3,9 C 75 % 1002,4 hPa 0,0 l/m 0 min 0 min 106 W/m 6,4 km/h (2 Bft) 95,74 %
14.12.2022 12:58 -0,1 C 0,0 C -3,9 C 75 % 1002,5 hPa 0,0 l/m 0 min 0 min 107 W/m 6,4 km/h (2 Bft) 61,70 %
14.12.2022 13:00 -0,1 C 0,0 C -3,9 C 75 % 1002,5 hPa 0,0 l/m 0 min 0 min 106 W/m 3,2 km/h (1 Bft) 81,48 %
14.12.2022 13:02 -0,1 C 0,6 C -3,9 C 75 % 1002,5 hPa 0,0 l/m 0 min 0 min 107 W/m 6,4 km/h (2 Bft) 91,49 %
14.12.2022 13:04 -0,1 C 0,6 C -3,9 C 75 % 1002,6 hPa 0,0 l/m 0 min 0 min 100 W/m 6,4 km/h (2 Bft) 95,65 %
14.12.2022 13:06 -0,1 C 0,6 C -3,9 C 75 % 1002,6 hPa 0,0 l/m 0 min 0 min 101 W/m 6,4 km/h (2 Bft) 95,74 %
14.12.2022 13:08 -0,1 C 0,6 C -3,9 C 75 % 1002,6 hPa 0,0 l/m 0 min 0 min 105 W/m 6,4 km/h (2 Bft) 97,87 %
14.12.2022 13:10 -0,1 C 0,6 C -3,9 C 75 % 1002,6 hPa 0,0 l/m 0 min 0 min 120 W/m 3,2 km/h (1 Bft) 97,87 %
14.12.2022 13:12 -0,1 C 0,6 C -3,9 C 75 % 1002,6 hPa 0,0 l/m 0 min 0 min 98 W/m 3,2 km/h (1 Bft) 97,87 %
14.12.2022 13:15 -0,1 C 1,1 C -3,9 C 75 % 1002,7 hPa 0,0 l/m 0 min 0 min 127 W/m 3,2 km/h (1 Bft) 97,87 %
14.12.2022 13:16 -0,1 C 1,1 C -3,9 C 75 % 1002,7 hPa 0,0 l/m 0 min 0 min 134 W/m 3,2 km/h (1 Bft) 97,78 %
14.12.2022 13:20 0,1 C 2,2 C -3,9 C 75 % 1002,6 hPa 0,0 l/m 4 min 0 min 250 W/m 3,2 km/h (1 Bft) 95,74 %
14.12.2022 13:22 0,1 C 2,8 C -3,9 C 75 % 1002,6 hPa 0,0 l/m 2 min 0 min 254 W/m 6,4 km/h (2 Bft) 97,87 %
14.12.2022 13:24 0,2 C 2,8 C -3,9 C 75 % 1002,6 hPa 0,0 l/m 2 min 0 min 251 W/m 3,2 km/h (1 Bft) 97,50 %
14.12.2022 13:26 0,2 C 2,2 C -3,9 C 74 % 1002,6 hPa 0,0 l/m 2 min 0 min 249 W/m 3,2 km/h (1 Bft) 97,87 %
14.12.2022 13:28 0,3 C 2,2 C -3,9 C 74 % 1002,6 hPa 0,0 l/m 2 min 0 min 246 W/m 3,2 km/h (1 Bft) 97,87 %
14.12.2022 13:30 0,4 C 2,2 C -3,9 C 74 % 1002,6 hPa 0,0 l/m 2 min 0 min 244 W/m 6,4 km/h (2 Bft) 97,87 %
14.12.2022 13:32 0,4 C 1,7 C -3,9 C 74 % 1002,6 hPa 0,0 l/m 2 min 0 min 243 W/m 3,2 km/h (1 Bft) 95,74 %
14.12.2022 13:34 0,5 C 1,7 C -4,4 C 74 % 1002,6 hPa 0,0 l/m 2 min 0 min 241 W/m 3,2 km/h (1 Bft) 89,36 %
14.12.2022 13:36 0,6 C 1,7 C -4,4 C 73 % 1002,6 hPa 0,0 l/m 2 min 0 min 239 W/m 6,4 km/h (2 Bft) 97,87 %
14.12.2022 13:38 0,6 C 1,1 C -4,4 C 73 % 1002,5 hPa 0,0 l/m 2 min 0 min 237 W/m 3,2 km/h (1 Bft) 95,74 %
14.12.2022 13:40 0,6 C 1,1 C -4,4 C 73 % 1002,5 hPa 0,0 l/m 2 min 0 min 236 W/m 6,4 km/h (2 Bft) 100,00 %
14.12.2022 13:42 0,6 C 0,6 C -4,4 C 73 % 1002,5 hPa 0,0 l/m 2 min 0 min 234 W/m 3,2 km/h (1 Bft) 82,98 %
14.12.2022 13:44 0,7 C 0,6 C -4,4 C 73 % 1002,5 hPa 0,0 l/m 2 min 0 min 230 W/m 3,2 km/h (1 Bft) 91,49 %
14.12.2022 13:46 0,8 C 0,6 C -4,4 C 73 % 1002,5 hPa 0,0 l/m 2 min 0 min 228 W/m 3,2 km/h (1 Bft) 78,26 %
14.12.2022 13:48 0,8 C 0,6 C -4,4 C 72 % 1002,5 hPa 0,0 l/m 2 min 0 min 227 W/m 6,4 km/h (2 Bft) 70,21 %
14.12.2022 13:50 0,8 C 0,6 C -4,4 C 72 % 1002,5 hPa 0,0 l/m 2 min 0 min 225 W/m 3,2 km/h (1 Bft) 34,04 %
14.12.2022 13:52 0,8 C 0,6 C -4,4 C 72 % 1002,5 hPa 0,0 l/m 2 min 0 min 221 W/m 3,2 km/h (1 Bft) 93,62 %
14.12.2022 13:54 0,8 C 0,6 C -4,4 C 72 % 1002,6 hPa 0,0 l/m 2 min 0 min 219 W/m 3,2 km/h (1 Bft) 68,09 %
14.12.2022 13:56 0,9 C 0,0 C -4,4 C 72 % 1002,5 hPa 0,0 l/m 2 min 0 min 210 W/m 0,0 km/h (0 Bft) 56,52 %
14.12.2022 13:58 0,9 C 0,0 C -4,4 C 72 % 1002,5 hPa 0,0 l/m 2 min 0 min 185 W/m 3,2 km/h (1 Bft) 100,00 %
14.12.2022 14:00 0,9 C 0,0 C -4,4 C 72 % 1002,6 hPa 0,0 l/m 2 min 0 min 208 W/m 3,2 km/h (1 Bft) 100,00 %
14.12.2022 14:02 0,9 C 0,0 C -4,4 C 72 % 1002,6 hPa 0,0 l/m 2 min 0 min 185 W/m 6,4 km/h (2 Bft) 100,00 %
14.12.2022 14:04 0,9 C 0,0 C -4,4 C 72 % 1002,6 hPa 0,0 l/m 2 min 0 min 139 W/m 6,4 km/h (2 Bft) 100,00 %
14.12.2022 14:06 0,9 C 0,0 C -4,4 C 72 % 1002,6 hPa 0,0 l/m 0 min 0 min 111 W/m 3,2 km/h (1 Bft) 100,00 %
14.12.2022 14:08 0,9 C 0,0 C -4,4 C 72 % 1002,6 hPa 0,0 l/m 0 min 0 min 78 W/m 6,4 km/h (2 Bft) 100,00 %
14.12.2022 14:10 0,9 C 0,0 C -4,4 C 72 % 1002,7 hPa 0,0 l/m 2 min 0 min 155 W/m 0,0 km/h (0 Bft) 100,00 %
14.12.2022 14:12 0,9 C 0,0 C -4,4 C 72 % 1002,7 hPa 0,0 l/m 2 min 0 min 184 W/m 0,0 km/h (0 Bft) 97,87 %
14.12.2022 14:14 0,9 C 0,0 C -4,4 C 72 % 1002,7 hPa 0,0 l/m 2 min 0 min 182 W/m 6,4 km/h (2 Bft) 100,00 %
14.12.2022 14:16 0,9 C -0,6 C -4,4 C 72 % 1002,7 hPa 0,0 l/m 2 min 0 min 155 W/m 3,2 km/h (1 Bft) 100,00 %
14.12.2022 14:18 0,8 C -0,6 C -4,4 C 72 % 1002,7 hPa 0,0 l/m 2 min 0 min 161 W/m 3,2 km/h (1 Bft) 100,00 %
14.12.2022 14:20 0,8 C 0,0 C -4,4 C 72 % 1002,7 hPa 0,0 l/m 2 min 0 min 176 W/m 0,0 km/h (0 Bft) 97,87 %
14.12.2022 14:25 0,8 C 0,6 C -4,4 C 72 % 1002,8 hPa 0,0 l/m 5 min 0 min 168 W/m 6,4 km/h (2 Bft) 100,00 %
14.12.2022 14:30 0,7 C 0,6 C -4,4 C 72 % 1002,7 hPa 0,0 l/m 5 min 0 min 151 W/m 3,2 km/h (1 Bft) 100,00 %
14.12.2022 14:36 0,8 C 0,6 C -4,4 C 73 % 1002,7 hPa 0,0 l/m 5 min 0 min 143 W/m 0,0 km/h (0 Bft) 99,46 %
14.12.2022 14:38 0,8 C 0,6 C -4,4 C 73 % 1002,7 hPa 0,0 l/m 2 min 0 min 103 W/m 0,0 km/h (0 Bft) 97,87 %
14.12.2022 14:40 0,8 C 0,6 C -4,4 C 73 % 1002,8 hPa 0,0 l/m 2 min 0 min 118 W/m 0,0 km/h (0 Bft) 95,74 %
14.12.2022 14:45 0,8 C 0,0 C -4,4 C 73 % 1002,8 hPa 0,0 l/m 5 min 0 min 104 W/m 3,2 km/h (1 Bft) 99,12 %
14.12.2022 14:50 0,8 C -0,6 C -4,4 C 73 % 1002,8 hPa 0,0 l/m 5 min 0 min 102 W/m 3,2 km/h (1 Bft) 98,25 %
14.12.2022 14:56 0,8 C -0,6 C -4,4 C 72 % 1002,7 hPa 0,0 l/m 5 min 0 min 91 W/m 0,0 km/h (0 Bft) 95,46 %
14.12.2022 14:58 0,7 C -0,6 C -4,4 C 72 % 1002,7 hPa 0,0 l/m 2 min 0 min 95 W/m 0,0 km/h (0 Bft) 92,06 %
14.12.2022 15:00 0,7 C -1,1 C -4,4 C 73 % 1002,8 hPa 0,0 l/m 2 min 0 min 100 W/m 0,0 km/h (0 Bft) 95,74 %
14.12.2022 15:02 0,7 C -1,1 C -5,0 C 73 % 1002,8 hPa 0,0 l/m 0 min 0 min 75 W/m 0,0 km/h (0 Bft) 95,74 %
14.12.2022 15:04 0,7 C -1,1 C -5,0 C 73 % 1002,8 hPa 0,0 l/m 0 min 0 min 55 W/m 3,2 km/h (1 Bft) 89,36 %
14.12.2022 15:06 0,7 C -1,1 C -5,0 C 73 % 1002,8 hPa 0,0 l/m 0 min 0 min 68 W/m 0,0 km/h (0 Bft) 95,74 %
14.12.2022 15:08 0,6 C -1,1 C -5,0 C 73 % 1002,8 hPa 0,0 l/m 0 min 0 min 69 W/m 0,0 km/h (0 Bft) 95,74 %
14.12.2022 15:10 0,6 C -1,1 C -5,0 C 73 % 1002,8 hPa 0,0 l/m 0 min 0 min 72 W/m 3,2 km/h (1 Bft) 93,48 %
14.12.2022 15:12 0,6 C -1,1 C -5,0 C 73 % 1002,8 hPa 0,0 l/m 0 min 0 min 55 W/m 3,2 km/h (1 Bft) 97,87 %
14.12.2022 15:14 0,6 C -1,1 C -5,0 C 73 % 1002,8 hPa 0,0 l/m 0 min 0 min 38 W/m 3,2 km/h (1 Bft) 97,87 %
14.12.2022 15:16 0,4 C -1,1 C -5,0 C 73 % 1002,9 hPa 0,0 l/m 0 min 0 min 34 W/m 3,2 km/h (1 Bft) 91,49 %
14.12.2022 15:18 0,4 C -1,1 C -5,0 C 73 % 1002,9 hPa 0,0 l/m 0 min 0 min 29 W/m 3,2 km/h (1 Bft) 100,00 %
14.12.2022 15:20 0,3 C -1,7 C -5,0 C 74 % 1002,9 hPa 0,0 l/m 0 min 0 min 29 W/m 3,2 km/h (1 Bft) 97,87 %
14.12.2022 15:22 0,2 C -1,7 C -5,0 C 74 % 1003,0 hPa 0,0 l/m 0 min 0 min 28 W/m 3,2 km/h (1 Bft) 97,87 %
14.12.2022 15:24 0,2 C -1,7 C -5,0 C 74 % 1002,9 hPa 0,0 l/m 0 min 0 min 28 W/m 0,0 km/h (0 Bft) 97,83 %
14.12.2022 15:26 0,1 C -1,7 C -5,0 C 74 % 1002,9 hPa 0,0 l/m 0 min 0 min 26 W/m 3,2 km/h (1 Bft) 100,00 %
14.12.2022 15:28 0,1 C -1,1 C -5,0 C 75 % 1002,8 hPa 0,0 l/m 0 min 0 min 25 W/m 0,0 km/h (0 Bft) 97,87 %
14.12.2022 15:30 0,0 C -1,7 C -5,0 C 75 % 1002,9 hPa 0,0 l/m 0 min 0 min 24 W/m 0,0 km/h (0 Bft) 97,87 %
14.12.2022 15:32 -0,1 C -1,7 C -5,0 C 75 % 1002,9 hPa 0,0 l/m 0 min 0 min 23 W/m 0,0 km/h (0 Bft) 100,00 %
14.12.2022 15:34 -0,1 C -1,7 C -5,0 C 75 % 1002,9 hPa 0,0 l/m 0 min 0 min 25 W/m 0,0 km/h (0 Bft) 97,87 %
14.12.2022 15:36 -0,1 C -1,7 C -5,0 C 75 % 1003,0 hPa 0,0 l/m 0 min 0 min 24 W/m 0,0 km/h (0 Bft) 100,00 %
14.12.2022 15:38 -0,1 C -1,7 C -5,0 C 75 % 1003,0 hPa 0,0 l/m 0 min 0 min 23 W/m 0,0 km/h (0 Bft) 97,87 %
14.12.2022 15:40 -0,2 C -1,7 C -5,0 C 75 % 1003,0 hPa 0,0 l/m 0 min 0 min 23 W/m 6,4 km/h (2 Bft) 97,87 %
14.12.2022 15:42 -0,2 C -1,7 C -5,0 C 75 % 1003,0 hPa 0,0 l/m 0 min 0 min 22 W/m 3,2 km/h (1 Bft) 97,87 %
14.12.2022 15:44 -0,2 C -1,7 C -5,0 C 75 % 1003,0 hPa 0,0 l/m 0 min 0 min 20 W/m 0,0 km/h (0 Bft) 100,00 %
14.12.2022 15:46 -0,3 C -1,7 C -5,0 C 76 % 1003,0 hPa 0,0 l/m 0 min 0 min 19 W/m 3,2 km/h (1 Bft) 97,87 %
14.12.2022 15:48 -0,3 C -1,7 C -5,0 C 76 % 1003,1 hPa 0,0 l/m 0 min 0 min 19 W/m 3,2 km/h (1 Bft) 97,87 %
14.12.2022 15:50 -0,3 C -1,7 C -5,0 C 76 % 1003,1 hPa 0,0 l/m 0 min 0 min 19 W/m 3,2 km/h (1 Bft) 100,00 %
14.12.2022 15:52 -0,4 C -1,7 C -5,0 C 76 % 1003,1 hPa 0,0 l/m 0 min 0 min 18 W/m 0,0 km/h (0 Bft) 95,35 %
14.12.2022 15:54 -0,4 C -1,7 C -5,6 C 76 % 1003,1 hPa 0,0 l/m 0 min 0 min 14 W/m 0,0 km/h (0 Bft) 97,87 %
14.12.2022 15:56 -0,4 C -2,2 C -5,6 C 77 % 1003,2 hPa 0,0 l/m 0 min 0 min 14 W/m 0,0 km/h (0 Bft) 97,87 %
14.12.2022 15:58 -0,4 C -2,2 C -5,6 C 76 % 1003,2 hPa 0,0 l/m 0 min 0 min 14 W/m 0,0 km/h (0 Bft) 93,62 %
14.12.2022 16:00 -0,5 C -2,2 C -5,6 C 76 % 1003,2 hPa 0,0 l/m 0 min 0 min 14 W/m 0,0 km/h (0 Bft) 100,00 %
14.12.2022 16:02 -0,5 C -2,2 C -5,6 C 76 % 1003,3 hPa 0,0 l/m 0 min 0 min 12 W/m 0,0 km/h (0 Bft) 95,74 %
14.12.2022 16:04 -0,6 C -2,2 C -5,6 C 76 % 1003,3 hPa 0,0 l/m 0 min 0 min 12 W/m 0,0 km/h (0 Bft) 97,87 %
14.12.2022 16:06 -0,6 C -2,2 C -5,6 C 77 % 1003,4 hPa 0,0 l/m 0 min 0 min 11 W/m 0,0 km/h (0 Bft) 97,87 %
14.12.2022 16:08 -0,6 C -2,2 C -5,6 C 77 % 1003,4 hPa 0,0 l/m 0 min 0 min 9 W/m 0,0 km/h (0 Bft) 97,87 %
14.12.2022 16:10 -0,7 C -2,2 C -5,6 C 77 % 1003,4 hPa 0,0 l/m 0 min 0 min 8 W/m 0,0 km/h (0 Bft) 95,74 %
14.12.2022 16:12 -0,7 C -2,2 C -5,6 C 77 % 1003,4 hPa 0,0 l/m 0 min 0 min 7 W/m 0,0 km/h (0 Bft) 95,74 %
14.12.2022 16:14 -0,7 C -2,2 C -6,1 C 77 % 1003,4 hPa 0,0 l/m 0 min 0 min 7 W/m 0,0 km/h (0 Bft) 95,65 %
14.12.2022 16:16 -0,7 C -2,8 C -6,1 C 77 % 1003,4 hPa 0,0 l/m 0 min 0 min 6 W/m 0,0 km/h (0 Bft) 93,62 %
14.12.2022 16:18 -0,8 C -2,8 C -6,1 C 77 % 1003,4 hPa 0,0 l/m 0 min 0 min 5 W/m 0,0 km/h (0 Bft) 95,74 %
14.12.2022 16:20 -0,8 C -2,8 C -6,1 C 77 % 1003,4 hPa 0,0 l/m 0 min 0 min 5 W/m 0,0 km/h (0 Bft) 93,62 %
14.12.2022 16:22 -0,9 C -2,8 C -6,1 C 77 % 1003,4 hPa 0,0 l/m 0 min 0 min 5 W/m 0,0 km/h (0 Bft) 95,74 %
14.12.2022 16:24 -0,9 C -2,8 C -6,1 C 77 % 1003,4 hPa 0,0 l/m 0 min 0 min 0 W/m 0,0 km/h (0 Bft) 100,00 %
14.12.2022 16:26 -0,9 C -2,8 C -6,1 C 77 % 1003,4 hPa 0,0 l/m 0 min 0 min 0 W/m 0,0 km/h (0 Bft) 97,87 %
14.12.2022 16:28 -1,0 C -2,8 C -6,1 C 77 % 1003,4 hPa 0,0 l/m 0 min 0 min 0 W/m 0,0 km/h (0 Bft) 95,65 %
14.12.2022 16:30 -1,1 C -2,8 C -6,7 C 77 % 1003,5 hPa 0,0 l/m 0 min 0 min 0 W/m 0,0 km/h (0 Bft) 97,87 %
14.12.2022 16:32 -1,1 C -3,3 C -6,7 C 77 % 1003,5 hPa 0,0 l/m 0 min 0 min 0 W/m 0,0 km/h (0 Bft) 100,00 %
14.12.2022 16:34 -1,1 C -3,3 C -6,7 C 77 % 1003,5 hPa 0,0 l/m 0 min 0 min 0 W/m 0,0 km/h (0 Bft) 100,00 %
14.12.2022 16:36 -1,2 C -3,3 C -6,7 C 78 % 1003,6 hPa 0,0 l/m 0 min 0 min 0 W/m 3,2 km/h (1 Bft) 100,00 %
14.12.2022 16:38 -1,2 C -3,3 C -6,7 C 78 % 1003,6 hPa 0,0 l/m 0 min 0 min 0 W/m 0,0 km/h (0 Bft) 100,00 %
14.12.2022 16:40 -1,2 C -3,3 C -6,7 C 78 % 1003,6 hPa 0,0 l/m 0 min 0 min 0 W/m 0,0 km/h (0 Bft) 100,00 %
14.12.2022 16:42 -1,3 C -3,3 C -6,7 C 78 % 1003,6 hPa 0,0 l/m 0 min 0 min 0 W/m 0,0 km/h (0 Bft) 100,00 %
14.12.2022 16:44 -1,3 C -3,3 C -6,7 C 78 % 1003,6 hPa 0,0 l/m 0 min 0 min 0 W/m 0,0 km/h (0 Bft) 100,00 %
14.12.2022 16:46 -1,4 C -3,3 C -6,7 C 78 % 1003,7 hPa 0,0 l/m 0 min 0 min 0 W/m 3,2 km/h (1 Bft) 100,00 %
14.12.2022 16:48 -1,4 C -3,3 C -6,7 C 78 % 1003,6 hPa 0,0 l/m 0 min 0 min 0 W/m 0,0 km/h (0 Bft) 97,87 %
14.12.2022 16:50 -1,4 C -3,9 C -6,7 C 78 % 1003,6 hPa 0,0 l/m 0 min 0 min 0 W/m 0,0 km/h (0 Bft) 100,00 %
14.12.2022 16:52 -1,5 C -3,9 C -6,7 C 78 % 1003,6 hPa 0,0 l/m 0 min 0 min 0 W/m 0,0 km/h (0 Bft) 100,00 %
14.12.2022 16:54 -1,6 C -3,9 C -6,7 C 78 % 1003,6 hPa 0,0 l/m 0 min 0 min 0 W/m 0,0 km/h (0 Bft) 100,00 %
14.12.2022 16:56 -1,6 C -3,9 C -7,2 C 79 % 1003,6 hPa 0,0 l/m 0 min 0 min 0 W/m 0,0 km/h (0 Bft) 100,00 %
14.12.2022 16:58 -1,7 C -3,9 C -7,2 C 79 % 1003,7 hPa 0,0 l/m 0 min 0 min 0 W/m 0,0 km/h (0 Bft) 95,83 %
14.12.2022 17:00 -1,7 C -3,9 C -7,2 C 79 % 1003,7 hPa 0,0 l/m 0 min 0 min 0 W/m 0,0 km/h (0 Bft) 97,83 %
14.12.2022 17:02 -1,8 C -3,9 C -7,2 C 79 % 1003,8 hPa 0,0 l/m 0 min 0 min 0 W/m 0,0 km/h (0 Bft) 100,00 %
14.12.2022 17:04 -1,8 C -3,9 C -7,2 C 79 % 1003,8 hPa 0,0 l/m 0 min 0 min 0 W/m 0,0 km/h (0 Bft) 100,00 %
14.12.2022 17:06 -1,8 C -3,9 C -7,2 C 79 % 1003,8 hPa 0,0 l/m 0 min 0 min 0 W/m 0,0 km/h (0 Bft) 97,87 %
14.12.2022 17:08 -1,9 C -3,9 C -7,2 C 79 % 1003,8 hPa 0,0 l/m 0 min 0 min 0 W/m 0,0 km/h (0 Bft) 100,00 %
14.12.2022 17:10 -1,9 C -3,9 C -7,2 C 79 % 1003,8 hPa 0,0 l/m 0 min 0 min 0 W/m 0,0 km/h (0 Bft) 100,00 %
14.12.2022 17:12 -1,9 C -3,9 C -7,2 C 79 % 1003,9 hPa 0,0 l/m 0 min 0 min 0 W/m 0,0 km/h (0 Bft) 100,00 %
14.12.2022 17:14 -2,0 C -3,9 C -7,2 C 79 % 1003,9 hPa 0,0 l/m 0 min 0 min 0 W/m 0,0 km/h (0 Bft) 97,87 %
14.12.2022 17:16 -2,1 C -3,9 C -7,2 C 80 % 1003,9 hPa 0,0 l/m 0 min 0 min 0 W/m 0,0 km/h (0 Bft) 95,74 %
14.12.2022 17:18 -2,1 C -3,9 C -7,2 C 80 % 1003,9 hPa 0,0 l/m 0 min 0 min 0 W/m 0,0 km/h (0 Bft) 100,00 %
14.12.2022 17:20 -2,1 C -3,9 C -7,2 C 80 % 1003,9 hPa 0,0 l/m 0 min 0 min 0 W/m 0,0 km/h (0 Bft) 97,87 %
14.12.2022 17:22 -2,2 C -3,9 C -7,2 C 80 % 1003,9 hPa 0,0 l/m 0 min 0 min 0 W/m 0,0 km/h (0 Bft) 97,87 %
14.12.2022 17:24 -2,2 C -3,9 C -7,2 C 80 % 1004,0 hPa 0,0 l/m 0 min 0 min 0 W/m 0,0 km/h (0 Bft) 86,96 %
14.12.2022 17:26 -2,2 C -3,9 C -7,2 C 80 % 1004,1 hPa 0,0 l/m 0 min 0 min 0 W/m 0,0 km/h (0 Bft) 97,92 %
14.12.2022 17:28 -2,3 C -3,9 C -7,2 C 80 % 1004,1 hPa 0,0 l/m 0 min 0 min 0 W/m 0,0 km/h (0 Bft) 97,87 %
14.12.2022 17:30 -2,3 C -3,9 C -7,2 C 80 % 1004,0 hPa 0,0 l/m 0 min 0 min 0 W/m 0,0 km/h (0 Bft) 97,87 %
14.12.2022 17:32 -2,3 C -3,9 C -7,2 C 80 % 1004,0 hPa 0,0 l/m 0 min 0 min 0 W/m 0,0 km/h (0 Bft) 91,49 %
14.12.2022 17:34 -2,4 C -4,4 C -7,2 C 80 % 1004,0 hPa 0,0 l/m 0 min 0 min 0 W/m 0,0 km/h (0 Bft) 97,87 %
14.12.2022 17:36 -2,4 C -4,4 C -7,2 C 80 % 1004,0 hPa 0,0 l/m 0 min 0 min 0 W/m 0,0 km/h (0 Bft) 91,49 %
14.12.2022 17:38 -2,4 C -4,4 C -7,2 C 80 % 1004,1 hPa 0,0 l/m 0 min 0 min 0 W/m 0,0 km/h (0 Bft) 93,48 %
14.12.2022 17:40 -2,5 C -4,4 C -7,2 C 80 % 1004,1 hPa 0,0 l/m 0 min 0 min 0 W/m 0,0 km/h (0 Bft) 50,00 %
14.12.2022 17:42 -2,5 C -4,4 C -7,2 C 80 % 1004,2 hPa 0,0 l/m 0 min 0 min 0 W/m 0,0 km/h (0 Bft) 89,13 %
14.12.2022 17:44 -2,6 C -4,4 C -7,2 C 80 % 1004,2 hPa 0,0 l/m 0 min 0 min 0 W/m 0,0 km/h (0 Bft) 95,74 %
14.12.2022 17:46 -2,6 C -4,4 C -7,2 C 81 % 1004,2 hPa 0,0 l/m 0 min 0 min 0 W/m 0,0 km/h (0 Bft) 89,36 %
14.12.2022 17:48 -2,6 C -4,4 C -7,2 C 81 % 1004,2 hPa 0,0 l/m 0 min 0 min 0 W/m 0,0 km/h (0 Bft) 93,62 %
14.12.2022 17:50 -2,7 C -4,4 C -7,8 C 81 % 1004,3 hPa 0,0 l/m 0 min 0 min 0 W/m 0,0 km/h (0 Bft) 91,49 %
14.12.2022 17:52 -2,7 C -4,4 C -7,8 C 81 % 1004,3 hPa 0,0 l/m 0 min 0 min 0 W/m 0,0 km/h (0 Bft) 93,48 %
14.12.2022 17:54 -2,8 C -4,4 C -7,8 C 81 % 1004,3 hPa 0,0 l/m 0 min 0 min 0 W/m 0,0 km/h (0 Bft) 91,49 %
14.12.2022 17:56 -2,8 C -4,4 C -7,8 C 81 % 1004,3 hPa 0,0 l/m 0 min 0 min 0 W/m 0,0 km/h (0 Bft) 87,23 %
14.12.2022 17:58 -2,8 C -4,4 C -7,8 C 81 % 1004,3 hPa 0,0 l/m 0 min 0 min 0 W/m 0,0 km/h (0 Bft) 93,62 %
14.12.2022 18:00 -2,9 C -4,4 C -7,8 C 81 % 1004,4 hPa 0,0 l/m 0 min 0 min 0 W/m 0,0 km/h (0 Bft) 97,92 %
14.12.2022 18:02 -2,9 C -4,4 C -7,8 C 81 % 1004,3 hPa 0,0 l/m 0 min 0 min 0 W/m 0,0 km/h (0 Bft) 97,87 %
14.12.2022 18:04 -2,9 C -4,4 C -7,8 C 81 % 1004,3 hPa 0,0 l/m 0 min 0 min 0 W/m 0,0 km/h (0 Bft) 97,83 %
14.12.2022 18:07 -3,0 C -5,0 C -7,8 C 81 % 1004,3 hPa 0,0 l/m 0 min 0 min 0 W/m 0,0 km/h (0 Bft) 97,18 %
14.12.2022 18:10 -3,1 C -5,0 C -7,8 C 81 % 1004,4 hPa 0,0 l/m 0 min 0 min 0 W/m 0,0 km/h (0 Bft) 97,14 %
14.12.2022 18:12 -3,1 C -5,0 C -7,8 C 82 % 1004,4 hPa 0,0 l/m 0 min 0 min 0 W/m 0,0 km/h (0 Bft) 97,87 %
14.12.2022 18:14 -3,2 C -5,0 C -7,8 C 82 % 1004,4 hPa 0,0 l/m 0 min 0 min 0 W/m 0,0 km/h (0 Bft) 95,74 %
14.12.2022 18:16 -3,2 C -5,0 C -7,8 C 82 % 1004,4 hPa 0,0 l/m 0 min 0 min 0 W/m 0,0 km/h (0 Bft) 97,87 %
14.12.2022 18:18 -3,2 C -5,0 C -7,8 C 82 % 1004,4 hPa 0,0 l/m 0 min 0 min 0 W/m 0,0 km/h (0 Bft) 97,83 %
14.12.2022 18:20 -3,3 C -5,0 C -7,8 C 82 % 1004,4 hPa 0,0 l/m 0 min 0 min 0 W/m 0,0 km/h (0 Bft) 95,74 %
14.12.2022 18:22 -3,3 C -5,0 C -7,8 C 82 % 1004,4 hPa 0,0 l/m 0 min 0 min 0 W/m 0,0 km/h (0 Bft) 95,74 %
14.12.2022 18:24 -3,4 C -5,0 C -7,8 C 82 % 1004,4 hPa 0,0 l/m 0 min 0 min 0 W/m 0,0 km/h (0 Bft) 97,14 %
14.12.2022 18:26 -3,4 C -4,4 C -7,8 C 83 % 1004,5 hPa 0,0 l/m 0 min 0 min 0 W/m 0,0 km/h (0 Bft) 96,61 %
14.12.2022 18:28 -3,4 C -4,4 C -7,8 C 83 % 1004,5 hPa 0,0 l/m 0 min 0 min 0 W/m 0,0 km/h (0 Bft) 97,87 %
14.12.2022 18:30 -3,4 C -4,4 C -7,8 C 83 % 1004,5 hPa 0,0 l/m 0 min 0 min 0 W/m 0,0 km/h (0 Bft) 97,87 %
14.12.2022 18:32 -3,4 C -4,4 C -7,8 C 83 % 1004,6 hPa 0,0 l/m 0 min 0 min 0 W/m 0,0 km/h (0 Bft) 95,65 %
14.12.2022 18:34 -3,4 C -4,4 C -7,8 C 83 % 1004,6 hPa 0,0 l/m 0 min 0 min 0 W/m 0,0 km/h (0 Bft) 95,74 %
14.12.2022 18:36 -3,5 C -4,4 C -7,8 C 84 % 1004,6 hPa 0,0 l/m 0 min 0 min 0 W/m 0,0 km/h (0 Bft) 80,85 %
14.12.2022 18:38 -3,5 C -4,4 C -7,8 C 84 % 1004,6 hPa 0,0 l/m 0 min 0 min 0 W/m 0,0 km/h (0 Bft) 97,87 %
14.12.2022 18:40 -3,5 C -4,4 C -7,8 C 84 % 1004,6 hPa 0,0 l/m 0 min 0 min 0 W/m 0,0 km/h (0 Bft) 100,00 %
14.12.2022 18:42 -3,5 C -4,4 C -7,8 C 84 % 1004,6 hPa 0,0 l/m 0 min 0 min 0 W/m 0,0 km/h (0 Bft) 97,87 %
14.12.2022 18:44 -3,6 C -4,4 C -7,8 C 84 % 1004,6 hPa 0,0 l/m 0 min 0 min 0 W/m 0,0 km/h (0 Bft) 100,00 %
14.12.2022 18:46 -3,6 C -4,4 C -7,8 C 84 % 1004,6 hPa 0,0 l/m 0 min 0 min 0 W/m 0,0 km/h (0 Bft) 97,83 %
14.12.2022 18:48 -3,6 C -5,0 C -7,8 C 84 % 1004,6 hPa 0,0 l/m 0 min 0 min 0 W/m 0,0 km/h (0 Bft) 100,00 %
14.12.2022 18:50 -3,7 C -5,0 C -7,8 C 84 % 1004,6 hPa 0,0 l/m 0 min 0 min 0 W/m 0,0 km/h (0 Bft) 100,00 %
14.12.2022 18:52 -3,7 C -5,0 C -7,8 C 84 % 1004,5 hPa 0,0 l/m 0 min 0 min 0 W/m 0,0 km/h (0 Bft) 97,87 %
14.12.2022 18:54 -3,7 C -5,0 C -7,8 C 84 % 1004,5 hPa 0,0 l/m 0 min 0 min 0 W/m 0,0 km/h (0 Bft) 97,87 %
14.12.2022 18:56 -3,7 C -5,0 C -7,8 C 84 % 1004,6 hPa 0,0 l/m 0 min 0 min 0 W/m 0,0 km/h (0 Bft) 98,31 %
14.12.2022 18:58 -3,7 C -5,0 C -7,8 C 85 % 1004,6 hPa 0,0 l/m 0 min 0 min 0 W/m 0,0 km/h (0 Bft) 100,00 %
14.12.2022 19:00 -3,7 C -5,0 C -7,8 C 85 % 1004,6 hPa 0,0 l/m 0 min 0 min 0 W/m 0,0 km/h (0 Bft) 95,74 %
14.12.2022 19:02 -3,8 C -5,0 C -7,8 C 85 % 1004,6 hPa 0,0 l/m 0 min 0 min 0 W/m 0,0 km/h (0 Bft) 95,65 %
14.12.2022 19:04 -3,8 C -5,0 C -7,8 C 85 % 1004,5 hPa 0,0 l/m 0 min 0 min 0 W/m 0,0 km/h (0 Bft) 93,62 %
14.12.2022 19:06 -3,8 C -5,0 C -7,8 C 85 % 1004,6 hPa 0,0 l/m 0 min 0 min 0 W/m 0,0 km/h (0 Bft) 93,22 %
14.12.2022 19:08 -3,8 C -5,0 C -7,8 C 85 % 1004,6 hPa 0,0 l/m 0 min 0 min 0 W/m 0,0 km/h (0 Bft) 91,67 %
14.12.2022 19:10 -3,9 C -5,0 C -8,3 C 85 % 1004,6 hPa 0,0 l/m 0 min 0 min 0 W/m 0,0 km/h (0 Bft) 95,74 %
14.12.2022 19:12 -3,9 C -5,0 C -8,3 C 85 % 1004,6 hPa 0,0 l/m 0 min 0 min 0 W/m 0,0 km/h (0 Bft) 91,49 %
14.12.2022 19:14 -3,9 C -5,0 C -8,3 C 85 % 1004,6 hPa 0,0 l/m 0 min 0 min 0 W/m 0,0 km/h (0 Bft) 93,62 %
14.12.2022 19:16 -3,9 C -5,0 C -8,3 C 85 % 1004,6 hPa 0,0 l/m 0 min 0 min 0 W/m 0,0 km/h (0 Bft) 95,65 %
14.12.2022 19:18 -3,9 C -5,0 C -8,3 C 86 % 1004,6 hPa 0,0 l/m 0 min 0 min 0 W/m 0,0 km/h (0 Bft) 95,74 %
14.12.2022 19:20 -3,9 C -5,0 C -8,3 C 86 % 1004,7 hPa 0,0 l/m 0 min 0 min 0 W/m 0,0 km/h (0 Bft) 93,62 %
14.12.2022 19:22 -4,0 C -5,0 C -8,3 C 86 % 1004,7 hPa 0,0 l/m 0 min 0 min 0 W/m 0,0 km/h (0 Bft) 95,74 %
14.12.2022 19:24 -4,0 C -5,0 C -8,3 C 86 % 1004,7 hPa 0,0 l/m 0 min 0 min 0 W/m 0,0 km/h (0 Bft) 97,87 %
14.12.2022 19:26 -4,1 C -5,0 C -8,3 C 86 % 1004,7 hPa 0,0 l/m 0 min 0 min 0 W/m 0,0 km/h (0 Bft) 97,87 %
14.12.2022 19:28 -4,1 C -5,0 C -8,3 C 86 % 1004,6 hPa 0,0 l/m 0 min 0 min 0 W/m 0,0 km/h (0 Bft) 100,00 %
14.12.2022 19:30 -4,1 C -5,0 C -8,3 C 86 % 1004,7 hPa 0,0 l/m 0 min 0 min 0 W/m 0,0 km/h (0 Bft) 95,74 %
14.12.2022 19:32 -4,1 C -5,0 C -8,3 C 86 % 1004,7 hPa 0,0 l/m 0 min 0 min 0 W/m 0,0 km/h (0 Bft) 100,00 %
14.12.2022 19:34 -4,1 C -5,0 C -8,3 C 86 % 1004,6 hPa 0,0 l/m 0 min 0 min 0 W/m 0,0 km/h (0 Bft) 97,87 %
14.12.2022 19:36 -4,2 C -5,6 C -8,3 C 86 % 1004,7 hPa 0,0 l/m 0 min 0 min 0 W/m 0,0 km/h (0 Bft) 100,00 %
14.12.2022 19:38 -4,2 C -5,6 C -8,3 C 86 % 1004,7 hPa 0,0 l/m 0 min 0 min 0 W/m 0,0 km/h (0 Bft) 100,00 %
14.12.2022 19:40 -4,2 C -5,6 C -8,3 C 86 % 1004,7 hPa 0,0 l/m 0 min 0 min 0 W/m 0,0 km/h (0 Bft) 97,87 %
14.12.2022 19:42 -4,2 C -5,0 C -8,3 C 86 % 1004,8 hPa 0,0 l/m 0 min 0 min 0 W/m 0,0 km/h (0 Bft) 100,00 %
14.12.2022 19:44 -4,1 C -5,0 C -8,3 C 86 % 1004,8 hPa 0,0 l/m 0 min 0 min 0 W/m 0,0 km/h (0 Bft) 100,00 %
14.12.2022 19:46 -4,1 C -5,0 C -8,3 C 87 % 1004,7 hPa 0,0 l/m 0 min 0 min 0 W/m 0,0 km/h (0 Bft) 100,00 %
14.12.2022 19:48 -4,1 C -5,0 C -8,3 C 87 % 1004,7 hPa 0,0 l/m 0 min 0 min 0 W/m 0,0 km/h (0 Bft) 100,00 %
14.12.2022 19:50 -4,1 C -5,6 C -8,3 C 87 % 1004,7 hPa 0,0 l/m 0 min 0 min 0 W/m 0,0 km/h (0 Bft) 95,74 %
14.12.2022 19:52 -4,2 C -5,6 C -8,3 C 87 % 1004,8 hPa 0,0 l/m 0 min 0 min 0 W/m 0,0 km/h (0 Bft) 100,00 %
14.12.2022 19:54 -4,2 C -5,6 C -8,3 C 87 % 1004,8 hPa 0,0 l/m 0 min 0 min 0 W/m 0,0 km/h (0 Bft) 100,00 %
14.12.2022 19:56 -4,2 C -5,6 C -8,3 C 87 % 1004,8 hPa 0,0 l/m 0 min 0 min 0 W/m 0,0 km/h (0 Bft) 97,83 %
14.12.2022 19:58 -4,3 C -5,6 C -8,3 C 87 % 1004,9 hPa 0,0 l/m 0 min 0 min 0 W/m 0,0 km/h (0 Bft) 100,00 %
14.12.2022 20:00 -4,3 C -5,6 C -8,3 C 87 % 1004,9 hPa 0,0 l/m 0 min 0 min 0 W/m 0,0 km/h (0 Bft) 100,00 %
14.12.2022 20:02 -4,3 C -5,6 C -8,3 C 87 % 1004,9 hPa 0,0 l/m 0 min 0 min 0 W/m 0,0 km/h (0 Bft) 100,00 %
14.12.2022 20:04 -4,3 C -5,6 C -8,3 C 87 % 1004,9 hPa 0,0 l/m 0 min 0 min 0 W/m 0,0 km/h (0 Bft) 100,00 %
14.12.2022 20:06 -4,3 C -5,6 C -8,3 C 87 % 1004,9 hPa 0,0 l/m 0 min 0 min 0 W/m 0,0 km/h (0 Bft) 100,00 %
14.12.2022 20:08 -4,4 C -6,1 C -8,9 C 87 % 1005,0 hPa 0,0 l/m 0 min 0 min 0 W/m 0,0 km/h (0 Bft) 100,00 %
14.12.2022 20:10 -4,4 C -6,1 C -8,9 C 87 % 1005,0 hPa 0,0 l/m 0 min 0 min 0 W/m 0,0 km/h (0 Bft) 55,32 %
14.12.2022 20:12 -4,4 C -6,1 C -8,9 C 87 % 1005,0 hPa 0,0 l/m 0 min 0 min 0 W/m 0,0 km/h (0 Bft) 85,00 %
14.12.2022 20:14 -4,5 C -6,1 C -8,9 C 87 % 1005,0 hPa 0,0 l/m 0 min 0 min 0 W/m 0,0 km/h (0 Bft) 100,00 %
14.12.2022 20:16 -4,6 C -6,1 C -8,9 C 87 % 1005,0 hPa 0,0 l/m 0 min 0 min 0 W/m 0,0 km/h (0 Bft) 95,74 %
14.12.2022 20:18 -4,6 C -6,1 C -8,9 C 87 % 1005,0 hPa 0,0 l/m 0 min 0 min 0 W/m 0,0 km/h (0 Bft) 97,87 %
14.12.2022 20:20 -4,6 C -6,1 C -8,9 C 87 % 1005,0 hPa 0,0 l/m 0 min 0 min 0 W/m 0,0 km/h (0 Bft) 97,87 %
14.12.2022 20:22 -4,7 C -6,1 C -8,9 C 87 % 1005,1 hPa 0,0 l/m 0 min 0 min 0 W/m 0,0 km/h (0 Bft) 95,74 %
14.12.2022 20:24 -4,7 C -6,1 C -8,9 C 87 % 1005,1 hPa 0,0 l/m 0 min 0 min 0 W/m 0,0 km/h (0 Bft) 95,74 %
14.12.2022 20:26 -4,6 C -5,6 C -8,9 C 87 % 1005,2 hPa 0,0 l/m 0 min 0 min 0 W/m 0,0 km/h (0 Bft) 100,00 %
14.12.2022 20:28 -4,6 C -5,6 C -8,9 C 87 % 1005,2 hPa 0,0 l/m 0 min 0 min 0 W/m 0,0 km/h (0 Bft) 91,49 %
14.12.2022 20:30 -4,6 C -5,6 C -8,9 C 87 % 1005,2 hPa 0,0 l/m 0 min 0 min 0 W/m 0,0 km/h (0 Bft) 82,98 %
14.12.2022 20:32 -4,6 C -5,6 C -8,9 C 88 % 1005,2 hPa 0,0 l/m 0 min 0 min 0 W/m 0,0 km/h (0 Bft) 91,49 %
14.12.2022 20:34 -4,6 C -5,6 C -8,9 C 88 % 1005,2 hPa 0,0 l/m 0 min 0 min 0 W/m 0,0 km/h (0 Bft) 87,23 %
14.12.2022 20:36 -4,6 C -5,6 C -8,9 C 88 % 1005,2 hPa 0,0 l/m 0 min 0 min 0 W/m 0,0 km/h (0 Bft) 91,49 %
14.12.2022 20:38 -4,6 C -5,6 C -8,3 C 88 % 1005,2 hPa 0,0 l/m 0 min 0 min 0 W/m 0,0 km/h (0 Bft) 68,09 %
14.12.2022 20:40 -4,6 C -5,6 C -8,3 C 88 % 1005,3 hPa 0,0 l/m 0 min 0 min 0 W/m 0,0 km/h (0 Bft) 79,07 %
14.12.2022 20:42 -4,6 C -5,6 C -8,3 C 88 % 1005,3 hPa 0,0 l/m 0 min 0 min 0 W/m 0,0 km/h (0 Bft) 93,48 %
14.12.2022 20:44 -4,6 C -5,6 C -8,9 C 88 % 1005,3 hPa 0,0 l/m 0 min 0 min 0 W/m 0,0 km/h (0 Bft) 89,36 %
14.12.2022 20:46 -4,7 C -6,1 C -8,9 C 88 % 1005,3 hPa 0,0 l/m 0 min 0 min 0 W/m 0,0 km/h (0 Bft) 95,74 %
14.12.2022 20:48 -4,7 C -6,1 C -8,9 C 88 % 1005,4 hPa 0,0 l/m 0 min 0 min 0 W/m 0,0 km/h (0 Bft) 100,00 %
14.12.2022 20:50 -4,7 C -6,1 C -8,9 C 88 % 1005,3 hPa 0,0 l/m 0 min 0 min 0 W/m 0,0 km/h (0 Bft) 97,87 %
14.12.2022 20:52 -4,7 C -6,1 C -8,9 C 88 % 1005,4 hPa 0,0 l/m 0 min 0 min 0 W/m 0,0 km/h (0 Bft) 90,32 %
14.12.2022 20:54 -4,8 C -6,1 C -8,9 C 88 % 1005,4 hPa 0,0 l/m 0 min 0 min 0 W/m 0,0 km/h (0 Bft) 93,48 %
14.12.2022 20:56 -4,8 C -6,1 C -8,9 C 88 % 1005,4 hPa 0,0 l/m 0 min 0 min 0 W/m 0,0 km/h (0 Bft) 70,21 %
14.12.2022 20:58 -4,8 C -6,1 C -8,9 C 88 % 1005,5 hPa 0,0 l/m 0 min 0 min 0 W/m 0,0 km/h (0 Bft) 55,32 %
14.12.2022 21:00 -4,8 C -6,1 C -8,9 C 88 % 1005,5 hPa 0,0 l/m 0 min 0 min 0 W/m 0,0 km/h (0 Bft) 70,21 %
14.12.2022 21:02 -4,8 C -6,1 C -8,9 C 88 % 1005,5 hPa 0,0 l/m 0 min 0 min 0 W/m 0,0 km/h (0 Bft) 93,48 %
14.12.2022 21:04 -4,8 C -6,1 C -8,9 C 88 % 1005,5 hPa 0,0 l/m 0 min 0 min 0 W/m 0,0 km/h (0 Bft) 89,36 %
14.12.2022 21:06 -4,8 C -6,1 C -8,9 C 88 % 1005,5 hPa 0,0 l/m 0 min 0 min 0 W/m 0,0 km/h (0 Bft) 70,21 %
14.12.2022 21:08 -4,8 C -6,1 C -8,9 C 89 % 1005,5 hPa 0,0 l/m 0 min 0 min 0 W/m 0,0 km/h (0 Bft) 65,62 %
14.12.2022 21:10 -4,8 C -6,1 C -8,9 C 89 % 1005,5 hPa 0,0 l/m 0 min 0 min 0 W/m 0,0 km/h (0 Bft) 78,72 %
14.12.2022 21:12 -4,8 C -6,1 C -8,9 C 89 % 1005,5 hPa 0,0 l/m 0 min 0 min 0 W/m 0,0 km/h (0 Bft) 93,62 %
14.12.2022 21:14 -4,8 C -6,1 C -8,9 C 89 % 1005,6 hPa 0,0 l/m 0 min 0 min 0 W/m 0,0 km/h (0 Bft) 80,85 %
14.12.2022 21:16 -4,8 C -6,1 C -8,9 C 89 % 1005,6 hPa 0,0 l/m 0 min 0 min 0 W/m 0,0 km/h (0 Bft) 56,52 %
14.12.2022 21:18 -4,9 C -6,1 C -8,9 C 89 % 1005,6 hPa 0,0 l/m 0 min 0 min 0 W/m 0,0 km/h (0 Bft) 36,17 %
14.12.2022 21:20 -4,9 C -6,1 C -8,9 C 89 % 1005,7 hPa 0,0 l/m 0 min 0 min 0 W/m 0,0 km/h (0 Bft) 27,66 %
14.12.2022 21:22 -4,9 C -6,1 C -8,9 C 89 % 1005,7 hPa 0,0 l/m 0 min 0 min 0 W/m 0,0 km/h (0 Bft) 46,43 %
14.12.2022 21:24 -4,9 C -6,1 C -8,9 C 89 % 1005,7 hPa 0,0 l/m 0 min 0 min 0 W/m 0,0 km/h (0 Bft) 65,96 %
14.12.2022 21:26 -4,9 C -6,1 C -8,9 C 89 % 1005,7 hPa 0,0 l/m 0 min 0 min 0 W/m 0,0 km/h (0 Bft) 70,21 %
14.12.2022 21:28 -5,0 C -6,7 C -8,9 C 89 % 1005,7 hPa 0,0 l/m 0 min 0 min 0 W/m 0,0 km/h (0 Bft) 94,74 %
14.12.2022 21:33 -5,1 C -6,7 C -8,9 C 89 % 1005,8 hPa 0,0 l/m 0 min 0 min 0 W/m 0,0 km/h (0 Bft) 100,00 %
14.12.2022 21:34 -5,1 C -6,7 C -8,9 C 89 % 1005,8 hPa 0,0 l/m 0 min 0 min 0 W/m 0,0 km/h (0 Bft) 100,00 %
14.12.2022 21:36 -5,2 C -6,7 C -8,9 C 89 % 1005,8 hPa 0,0 l/m 0 min 0 min 0 W/m 0,0 km/h (0 Bft) 97,87 %
14.12.2022 21:38 -5,2 C -6,7 C -8,9 C 89 % 1005,8 hPa 0,0 l/m 0 min 0 min 0 W/m 0,0 km/h (0 Bft) 100,00 %
14.12.2022 21:40 -5,3 C -6,7 C -8,9 C 89 % 1005,9 hPa 0,0 l/m 0 min 0 min 0 W/m 0,0 km/h (0 Bft) 97,87 %
14.12.2022 21:42 -5,3 C -6,7 C -8,9 C 89 % 1005,9 hPa 0,0 l/m 0 min 0 min 0 W/m 0,0 km/h (0 Bft) 100,00 %
14.12.2022 21:44 -5,3 C -6,7 C -8,9 C 89 % 1006,0 hPa 0,0 l/m 0 min 0 min 0 W/m 0,0 km/h (0 Bft) 100,00 %
14.12.2022 21:46 -5,3 C -6,7 C -8,9 C 89 % 1006,0 hPa 0,0 l/m 0 min 0 min 0 W/m 0,0 km/h (0 Bft) 97,83 %
14.12.2022 21:48 -5,4 C -6,7 C -9,4 C 89 % 1006,0 hPa 0,0 l/m 0 min 0 min 0 W/m 0,0 km/h (0 Bft) 100,00 %
14.12.2022 21:50 -5,4 C -6,7 C -9,4 C 88 % 1006,1 hPa 0,0 l/m 0 min 0 min 0 W/m 0,0 km/h (0 Bft) 97,87 %
14.12.2022 21:52 -5,4 C -6,7 C -9,4 C 89 % 1006,1 hPa 0,0 l/m 0 min 0 min 0 W/m 0,0 km/h (0 Bft) 100,00 %
14.12.2022 21:54 -5,5 C -6,7 C -9,4 C 89 % 1006,1 hPa 0,0 l/m 0 min 0 min 0 W/m 0,0 km/h (0 Bft) 93,62 %
14.12.2022 21:56 -5,6 C -6,7 C -9,4 C 88 % 1006,2 hPa 0,0 l/m 0 min 0 min 0 W/m 0,0 km/h (0 Bft) 85,11 %
14.12.2022 21:58 -5,6 C -6,7 C -9,4 C 88 % 1006,2 hPa 0,0 l/m 0 min 0 min 0 W/m 0,0 km/h (0 Bft) 93,62 %
14.12.2022 22:00 -5,7 C -6,7 C -9,4 C 89 % 1006,1 hPa 0,0 l/m 0 min 0 min 0 W/m 0,0 km/h (0 Bft) 89,13 %
14.12.2022 22:02 -5,7 C -6,7 C -9,4 C 89 % 1006,2 hPa 0,0 l/m 0 min 0 min 0 W/m 0,0 km/h (0 Bft) 89,19 %
14.12.2022 22:04 -5,7 C -6,7 C -9,4 C 89 % 1006,2 hPa 0,0 l/m 0 min 0 min 0 W/m 0,0 km/h (0 Bft) 93,62 %
14.12.2022 22:06 -5,7 C -6,7 C -9,4 C 89 % 1006,2 hPa 0,0 l/m 0 min 0 min 0 W/m 0,0 km/h (0 Bft) 93,22 %
14.12.2022 22:08 -5,7 C -6,7 C -9,4 C 89 % 1006,3 hPa 0,0 l/m 0 min 0 min 0 W/m 0,0 km/h (0 Bft) 100,00 %
14.12.2022 22:10 -5,7 C -6,7 C -9,4 C 89 % 1006,3 hPa 0,0 l/m 0 min 0 min 0 W/m 0,0 km/h (0 Bft) 82,61 %
14.12.2022 22:12 -5,7 C -6,7 C -9,4 C 89 % 1006,3 hPa 0,0 l/m 0 min 0 min 0 W/m 0,0 km/h (0 Bft) 93,62 %
14.12.2022 22:14 -5,7 C -6,7 C -9,4 C 89 % 1006,3 hPa 0,0 l/m 0 min 0 min 0 W/m 0,0 km/h (0 Bft) 89,36 %
14.12.2022 22:16 -5,7 C -6,7 C -9,4 C 89 % 1006,4 hPa 0,0 l/m 0 min 0 min 0 W/m 0,0 km/h (0 Bft) 91,49 %
14.12.2022 22:18 -5,7 C -6,7 C -9,4 C 89 % 1006,3 hPa 0,0 l/m 0 min 0 min 0 W/m 0,0 km/h (0 Bft) 95,74 %
14.12.2022 22:20 -5,7 C -6,7 C -9,4 C 89 % 1006,3 hPa 0,0 l/m 0 min 0 min 0 W/m 0,0 km/h (0 Bft) 87,23 %
14.12.2022 22:22 -5,7 C -6,7 C -9,4 C 89 % 1006,4 hPa 0,0 l/m 0 min 0 min 0 W/m 0,0 km/h (0 Bft) 93,62 %
14.12.2022 22:24 -5,7 C -6,7 C -9,4 C 89 % 1006,4 hPa 0,0 l/m 0 min 0 min 0 W/m 0,0 km/h (0 Bft) 95,65 %
14.12.2022 22:26 -5,7 C -6,7 C -9,4 C 89 % 1006,4 hPa 0,0 l/m 0 min 0 min 0 W/m 0,0 km/h (0 Bft) 93,62 %
14.12.2022 22:28 -5,8 C -6,7 C -9,4 C 89 % 1006,4 hPa 0,0 l/m 0 min 0 min 0 W/m 0,0 km/h (0 Bft) 97,87 %
14.12.2022 22:30 -5,8 C -6,7 C -9,4 C 89 % 1006,3 hPa 0,0 l/m 0 min 0 min 0 W/m 0,0 km/h (0 Bft) 97,87 %
14.12.2022 22:32 -5,8 C -6,7 C -9,4 C 89 % 1006,4 hPa 0,0 l/m 0 min 0 min 0 W/m 0,0 km/h (0 Bft) 95,74 %
14.12.2022 22:34 -5,8 C -7,2 C -9,4 C 89 % 1006,3 hPa 0,0 l/m 0 min 0 min 0 W/m 0,0 km/h (0 Bft) 93,62 %
14.12.2022 22:36 -5,9 C -7,2 C -9,4 C 89 % 1006,3 hPa 0,0 l/m 0 min 0 min 0 W/m 0,0 km/h (0 Bft) 95,74 %
14.12.2022 22:38 -5,9 C -7,2 C -9,4 C 89 % 1006,3 hPa 0,0 l/m 0 min 0 min 0 W/m 0,0 km/h (0 Bft) 95,65 %
14.12.2022 22:40 -5,9 C -7,2 C -9,4 C 89 % 1006,3 hPa 0,0 l/m 0 min 0 min 0 W/m 0,0 km/h (0 Bft) 97,87 %
14.12.2022 22:42 -6,0 C -7,2 C -9,4 C 89 % 1006,3 hPa 0,0 l/m 0 min 0 min 0 W/m 0,0 km/h (0 Bft) 95,74 %
14.12.2022 22:44 -6,1 C -7,2 C -9,4 C 89 % 1006,3 hPa 0,0 l/m 0 min 0 min 0 W/m 0,0 km/h (0 Bft) 97,87 %
14.12.2022 22:46 -6,1 C -7,2 C -9,4 C 89 % 1006,3 hPa 0,0 l/m 0 min 0 min 0 W/m 0,0 km/h (0 Bft) 95,74 %
14.12.2022 22:48 -6,1 C -7,2 C -9,4 C 89 % 1006,4 hPa 0,0 l/m 0 min 0 min 0 W/m 0,0 km/h (0 Bft) 95,74 %
14.12.2022 22:50 -6,2 C -7,2 C -9,4 C 89 % 1006,5 hPa 0,0 l/m 0 min 0 min 0 W/m 0,0 km/h (0 Bft) 97,87 %
14.12.2022 22:52 -6,2 C -7,2 C -9,4 C 89 % 1006,4 hPa 0,0 l/m 0 min 0 min 0 W/m 0,0 km/h (0 Bft) 97,83 %
14.12.2022 22:54 -6,2 C -7,2 C -9,4 C 89 % 1006,4 hPa 0,0 l/m 0 min 0 min 0 W/m 0,0 km/h (0 Bft) 97,87 %
14.12.2022 22:56 -6,3 C -7,2 C -9,4 C 89 % 1006,4 hPa 0,0 l/m 0 min 0 min 0 W/m 0,0 km/h (0 Bft) 95,74 %
14.12.2022 22:58 -6,3 C -7,2 C -9,4 C 89 % 1006,4 hPa 0,0 l/m 0 min 0 min 0 W/m 0,0 km/h (0 Bft) 93,62 %
14.12.2022 23:00 -6,3 C -7,2 C -9,4 C 89 % 1006,3 hPa 0,0 l/m 0 min 0 min 0 W/m 0,0 km/h (0 Bft) 97,87 %
14.12.2022 23:02 -6,4 C -7,2 C -9,4 C 89 % 1006,4 hPa 0,0 l/m 0 min 0 min 0 W/m 0,0 km/h (0 Bft) 97,87 %
14.12.2022 23:04 -6,4 C -7,2 C -9,4 C 89 % 1006,4 hPa 0,0 l/m 0 min 0 min 0 W/m 0,0 km/h (0 Bft) 95,74 %
14.12.2022 23:06 -6,4 C -7,2 C -9,4 C 89 % 1006,4 hPa 0,0 l/m 0 min 0 min 0 W/m 0,0 km/h (0 Bft) 94,83 %
14.12.2022 23:08 -6,4 C -7,2 C -9,4 C 89 % 1006,4 hPa 0,0 l/m 0 min 0 min 0 W/m 0,0 km/h (0 Bft) 94,29 %
14.12.2022 23:10 -6,4 C -7,2 C -9,4 C 89 % 1006,5 hPa 0,0 l/m 0 min 0 min 0 W/m 0,0 km/h (0 Bft) 95,74 %
14.12.2022 23:12 -6,4 C -7,2 C -9,4 C 89 % 1006,4 hPa 0,0 l/m 0 min 0 min 0 W/m 0,0 km/h (0 Bft) 93,62 %
14.12.2022 23:14 -6,4 C -7,2 C -9,4 C 89 % 1006,4 hPa 0,0 l/m 0 min 0 min 0 W/m 0,0 km/h (0 Bft) 97,87 %
14.12.2022 23:16 -6,4 C -7,2 C -9,4 C 89 % 1006,4 hPa 0,0 l/m 0 min 0 min 0 W/m 0,0 km/h (0 Bft) 91,49 %
14.12.2022 23:18 -6,4 C -7,2 C -9,4 C 90 % 1006,3 hPa 0,0 l/m 0 min 0 min 0 W/m 0,0 km/h (0 Bft) 87,23 %
14.12.2022 23:20 -6,4 C -6,7 C -9,4 C 90 % 1006,3 hPa 0,0 l/m 0 min 0 min 0 W/m 3,2 km/h (1 Bft) 76,09 %
14.12.2022 23:22 -6,3 C -6,7 C -9,4 C 90 % 1006,3 hPa 0,0 l/m 0 min 0 min 0 W/m 0,0 km/h (0 Bft) 82,98 %
14.12.2022 23:24 -6,3 C -6,7 C -9,4 C 90 % 1006,3 hPa 0,0 l/m 0 min 0 min 0 W/m 0,0 km/h (0 Bft) 91,18 %
14.12.2022 23:26 -6,3 C -6,7 C -9,4 C 90 % 1006,3 hPa 0,0 l/m 0 min 0 min 0 W/m 0,0 km/h (0 Bft) 92,31 %
14.12.2022 23:28 -6,3 C -7,2 C -9,4 C 90 % 1006,3 hPa 0,0 l/m 0 min 0 min 0 W/m 0,0 km/h (0 Bft) 93,62 %
14.12.2022 23:30 -6,3 C -7,2 C -9,4 C 90 % 1006,3 hPa 0,0 l/m 0 min 0 min 0 W/m 0,0 km/h (0 Bft) 85,11 %
14.12.2022 23:32 -6,3 C -7,2 C -9,4 C 90 % 1006,3 hPa 0,0 l/m 0 min 0 min 0 W/m 0,0 km/h (0 Bft) 93,62 %
14.12.2022 23:34 -6,3 C -7,2 C -9,4 C 90 % 1006,3 hPa 0,0 l/m 0 min 0 min 0 W/m 0,0 km/h (0 Bft) 89,13 %
14.12.2022 23:36 -6,3 C -7,2 C -9,4 C 90 % 1006,3 hPa 0,0 l/m 0 min 0 min 0 W/m 0,0 km/h (0 Bft) 89,36 %
14.12.2022 23:38 -6,3 C -7,2 C -9,4 C 90 % 1006,3 hPa 0,0 l/m 0 min 0 min 0 W/m 0,0 km/h (0 Bft) 85,11 %
14.12.2022 23:40 -6,3 C -7,2 C -9,4 C 90 % 1006,4 hPa 0,0 l/m 0 min 0 min 0 W/m 0,0 km/h (0 Bft) 87,23 %
14.12.2022 23:42 -6,4 C -7,2 C -9,4 C 90 % 1006,3 hPa 0,0 l/m 0 min 0 min 0 W/m 0,0 km/h (0 Bft) 93,62 %
14.12.2022 23:44 -6,3 C -7,2 C -9,4 C 90 % 1006,3 hPa 0,0 l/m 0 min 0 min 0 W/m 0,0 km/h (0 Bft) 95,74 %
14.12.2022 23:46 -6,3 C -6,7 C -9,4 C 90 % 1006,3 hPa 0,0 l/m 0 min 0 min 0 W/m 0,0 km/h (0 Bft) 95,74 %
14.12.2022 23:48 -6,3 C -7,2 C -9,4 C 90 % 1006,4 hPa 0,0 l/m 0 min 0 min 0 W/m 0,0 km/h (0 Bft) 95,65 %
14.12.2022 23:50 -6,3 C -7,2 C -9,4 C 90 % 1006,3 hPa 0,0 l/m 0 min 0 min 0 W/m 0,0 km/h (0 Bft) 93,62 %
14.12.2022 23:52 -6,3 C -7,2 C -9,4 C 90 % 1006,4 hPa 0,0 l/m 0 min 0 min 0 W/m 0,0 km/h (0 Bft) 95,74 %
14.12.2022 23:54 -6,3 C -7,2 C -9,4 C 90 % 1006,3 hPa 0,0 l/m 0 min 0 min 0 W/m 0,0 km/h (0 Bft) 97,87 %
14.12.2022 23:56 -6,4 C -7,2 C -9,4 C 90 % 1006,4 hPa 0,0 l/m 0 min 0 min 0 W/m 0,0 km/h (0 Bft) 95,74 %
14.12.2022 23:58 -6,4 C -7,2 C -9,4 C 90 % 1006,5 hPa 0,0 l/m 0 min 0 min 0 W/m 0,0 km/h (0 Bft) 97,87 %
_ Min-Zeit 23:02 22:34 21:48 13:48 08:20 - - - - 03:40 21:20
Minimum _ -6,4 C -7,2 C -9,4 C 72 % 1002,0 hPa - - - - 0,0 km/h (0 Bft) 27,66 %
_ Max-Zeit 13:56 13:22 12:20 23:18 22:50 00:00 14:25 00:00 13:22 02:02 00:38
Maximum _ 0,9 C 2,8 C -3,3 C 90 % 1006,5 hPa 0,0 l/m 5 min 0 min 254 W/m 16,1 km/h
S (3 Bft)
100,00 %
Durchschnitt _ -2,4 C -3,1 C -6,3 C 81 % 1003,9 hPa #0,0 l/m #1:38 h #0 min. 87 W/m 2,8 km/h (1 Bft) 95,29 %
© 2022 W. Hausmann